Home > Products > Valid Products > TAF

000
FTUS46 KPQR 272343
TAFEUG
TAF
KEUG 272343Z 2800/2824 02006KT P6SM SCT250
     FM280900 19010KT 6SM BR OVC020
     FM281500 17008KT P6SM -RA OVC050
     FM282000 27010KT P6SM -SHRA SCT025 OVC040=



000
FTUS46 KPQR 272343
TAFTTD
TAF
KTTD 272343Z 2800/2824 09012KT P6SM SCT250
     FM280500 10008KT P6SM SCT250
     FM281000 15006KT P6SM SCT025 OVC050
     FM281500 17008KT P6SM -RA OVC050
     FM282000 27010KT P6SM -SHRA SCT025 OVC040=



000
FTUS46 KPQR 272343
TAFPDX
TAF
KPDX 272343Z 2800/2824 28006KT P6SM SCT250
     FM280300 12005KT P6SM SCT250
     FM281000 16007KT P6SM SCT025 OVC050
     FM281500 17008KT P6SM -RA OVC050
     FM282000 27010KT P6SM -SHRA SCT025 OVC040=



000
FTUS46 KPQR 272343
TAFSLE
TAF
KSLE 272343Z 2800/2824 01007KT P6SM SCT250
     FM280400 VRB03KT P6SM SCT250
     FM281000 18006KT P6SM OVC030
     FM281500 17008KT P6SM -RA OVC050
     FM282100 25010KT P6SM -SHRA SCT025 OVC040=



000
FTUS46 KPQR 272343
TAFTTD
TAF
KTTD 272343Z 2800/2824 09012KT P6SM SCT250
     FM280500 10008KT P6SM SCT250
     FM281000 15006KT P6SM SCT025 OVC050
     FM281500 17008KT P6SM -RA OVC050
     FM282000 27010KT P6SM -SHRA SCT025 OVC040=



000
FTUS46 KPQR 272343
TAFAST
TAF
KAST 272343Z 2800/2824 36008KT P6SM SCT250
     FM280700 22010KT P6SM OVC025
     FM281100 23011KT 6SM -RA BR OVC015
     FM281500 26010KT 4SM -RA BR OVC015
     FM282000 28008KT P6SM -SHRA SCT025 BKN035 BKN050=



000
FTUS46 KPQR 272343
TAFAST
TAF
KAST 272343Z 2800/2824 36008KT P6SM SCT250
     FM280700 22010KT P6SM OVC025
     FM281100 23011KT 6SM -RA BR OVC015
     FM281500 26010KT 4SM -RA BR OVC015
     FM282000 28008KT P6SM -SHRA SCT025 BKN035 BKN050=



000
FTUS46 KPQR 272343
TAFHIO
TAF
KHIO 272343Z 2800/2824 VRB04KT P6SM SCT250
     FM280900 16006KT P6SM SCT025 OVC050
     FM281500 17008KT P6SM -RA OVC050
     FM282000 27010KT P6SM -SHRA SCT025 OVC040=



000
FTUS46 KPQR 272343
TAFSLE
TAF
KSLE 272343Z 2800/2824 01007KT P6SM SCT250
     FM280400 VRB03KT P6SM SCT250
     FM281000 18006KT P6SM OVC030
     FM281500 17008KT P6SM -RA OVC050
     FM282100 25010KT P6SM -SHRA SCT025 OVC040=



000
FTUS46 KPQR 272343
TAFHIO
TAF
KHIO 272343Z 2800/2824 VRB04KT P6SM SCT250
     FM280900 16006KT P6SM SCT025 OVC050
     FM281500 17008KT P6SM -RA OVC050
     FM282000 27010KT P6SM -SHRA SCT025 OVC040=



000
FTUS46 KPQR 272343
TAFEUG
TAF
KEUG 272343Z 2800/2824 02006KT P6SM SCT250
     FM280900 19010KT 6SM BR OVC020
     FM281500 17008KT P6SM -RA OVC050
     FM282000 27010KT P6SM -SHRA SCT025 OVC040=



000
FTUS46 KPQR 272343
TAFONP
TAF
KONP 272343Z 2800/2824 33007KT P6SM SCT250
     FM280500 17008KT P6SM OVC020
     FM280900 20010KT P6SM OVC015
     FM281100 20013KT 6SM -RA BR OVC015
     FM281500 25009KT 4SM -RA BR BKN008 OVC012
     FM282000 29008KT P6SM -SHRA SCT025 BKN035 BKN050=



000
FTUS46 KPQR 272343
TAFONP
TAF
KONP 272343Z 2800/2824 33007KT P6SM SCT250
     FM280500 17008KT P6SM OVC020
     FM280900 20010KT P6SM OVC015
     FM281100 20013KT 6SM -RA BR OVC015
     FM281500 25009KT 4SM -RA BR BKN008 OVC012
     FM282000 29008KT P6SM -SHRA SCT025 BKN035 BKN050=



000
FTUS46 KPQR 272343
TAFPDX
TAF
KPDX 272343Z 2800/2824 28006KT P6SM SCT250
     FM280300 12005KT P6SM SCT250
     FM281000 16007KT P6SM SCT025 OVC050
     FM281500 17008KT P6SM -RA OVC050
     FM282000 27010KT P6SM -SHRA SCT025 OVC040=



000
FTUS46 KPQR 272156 AAA
TAFAST
TAF AMD
KAST 272156Z 2722/2818 36008KT P6SM SCT025 SCT250
     FM280500 20010KT P6SM OVC012
     FM280900 22010KT P6SM OVC015
     FM281100 24011KT 6SM -RA BR OVC015
     FM281500 26010KT 4SM -RA BR OVC015=



000
FTUS46 KPQR 272156 AAA
TAFAST
TAF AMD
KAST 272156Z 2722/2818 36008KT P6SM SCT025 SCT250
     FM280500 20010KT P6SM OVC012
     FM280900 22010KT P6SM OVC015
     FM281100 24011KT 6SM -RA BR OVC015
     FM281500 26010KT 4SM -RA BR OVC015=



000
FTUS46 KPQR 272156 AAA
TAFAST
TAF AMD
KAST 272156Z 2722/2818 36008KT P6SM SCT025 SCT250
     FM280500 20010KT P6SM OVC012
     FM280900 22010KT P6SM OVC015
     FM281100 24011KT 6SM -RA BR OVC015
     FM281500 26010KT 4SM -RA BR OVC015=



000
FTUS46 KPQR 272156 AAA
TAFAST
TAF AMD
KAST 272156Z 2722/2818 36008KT P6SM SCT025 SCT250
     FM280500 20010KT P6SM OVC012
     FM280900 22010KT P6SM OVC015
     FM281100 24011KT 6SM -RA BR OVC015
     FM281500 26010KT 4SM -RA BR OVC015=



000
FTUS46 KPQR 272154 AAB
TAFPDX
TAF AMD
KPDX 272154Z 2722/2818 28007KT P6SM SCT250
     FM280300 19005KT P6SM SCT250
     FM281000 16007KT P6SM SCT025 OVC050
     FM281400 17008KT P6SM -RA SCT025 OVC050=



000
FTUS46 KPQR 272020 AAA
TAFPDX
TAF AMD
KPDX 272020Z 2720/2818 28007KT P6SM SCT250
     FM272200 15010KT P6SM SCT250
     FM280300 19005KT P6SM SCT250
     FM281000 16007KT P6SM SCT025 OVC050
     FM281400 17008KT P6SM -RA SCT025 OVC050=



000
FTUS46 KPQR 272020 AAA
TAFPDX
TAF AMD
KPDX 272020Z 2720/2818 28007KT P6SM SCT250
     FM272200 15010KT P6SM SCT250
     FM280300 19005KT P6SM SCT250
     FM281000 16007KT P6SM SCT025 OVC050
     FM281400 17008KT P6SM -RA SCT025 OVC050=



000
FTUS46 KPQR 272020 AAA
TAFPDX
TAF AMD
KPDX 272020Z 2720/2818 28007KT P6SM SCT250
     FM272200 15010KT P6SM SCT250
     FM280300 19005KT P6SM SCT250
     FM281000 16007KT P6SM SCT025 OVC050
     FM281400 17008KT P6SM -RA SCT025 OVC050=



000
FTUS46 KPQR 272020 AAA
TAFPDX
TAF AMD
KPDX 272020Z 2720/2818 28007KT P6SM SCT250
     FM272200 15010KT P6SM SCT250
     FM280300 19005KT P6SM SCT250
     FM281000 16007KT P6SM SCT025 OVC050
     FM281400 17008KT P6SM -RA SCT025 OVC050=



000
FTUS46 KPQR 271725
TAFAST
TAF
KAST 271725Z 2718/2818 08008KT P6SM SCT025 SCT250
     FM280500 20010KT P6SM OVC012
     FM280900 22010KT P6SM OVC015
     FM281100 24011KT 6SM -RA BR OVC015
     FM281500 26010KT 4SM -RA BR OVC015=



000
FTUS46 KPQR 271725
TAFHIO
TAF
KHIO 271725Z 2718/2818 VRB03KT P6SM BKN015 BKN250
     FM272000 09007KT P6SM SCT250
     FM280300 VRB04KT P6SM SCT250
     FM280900 16006KT P6SM SCT025 OVC050
     FM281300 18007KT P6SM -RA SCT025 OVC050=



000
FTUS46 KPQR 271725
TAFSLE
TAF
KSLE 271725Z 2718/2818 VRB03KT P6SM SCT030 SCT250
     FM272100 01007KT P6SM SCT250
     FM280200 VRB03KT P6SM SCT250
     FM280900 18006KT 6SM BR OVC030
     FM281300 17009KT 4SM -RA BR OVC015=



000
FTUS46 KPQR 271725
TAFEUG
TAF
KEUG 271725Z 2718/2818 01006KT 6SM BR OVC006
     FM271930 35007KT P6SM SCT006 SCT250
     FM280200 25005KT P6SM SCT250
     FM280900 18010KT 6SM BR OVC020
     FM281300 18007KT 4SM -RA BR OVC015=



000
FTUS46 KPQR 271725
TAFPDX
TAF
KPDX 271725Z 2718/2818 11007KT P6SM SCT020 SCT250
     FM272200 09010KT P6SM SCT250
     FM280300 16005KT P6SM SCT250
     FM281000 16007KT P6SM SCT025 OVC050
     FM281400 17008KT P6SM -RA SCT025 OVC050=



000
FTUS46 KPQR 271725
TAFTTD
TAF
KTTD 271725Z 2718/2818 09005KT P6SM SCT020 SCT250
     FM272000 09012KT P6SM SCT250
     FM280400 10008KT P6SM SCT250
     FM281000 15006KT P6SM SCT025 OVC050
     FM281400 18005KT P6SM -RA SCT025 OVC050=



000
FTUS46 KPQR 271725
TAFAST
TAF
KAST 271725Z 2718/2818 08008KT P6SM SCT025 SCT250
     FM280500 20010KT P6SM OVC012
     FM280900 22010KT P6SM OVC015
     FM281100 24011KT 6SM -RA BR OVC015
     FM281500 26010KT 4SM -RA BR OVC015=



000
FTUS46 KPQR 271725
TAFONP
TAF
KONP 271725Z 2718/2818 09009KT P6SM SCT025 SCT250
     FM272200 30007KT P6SM SCT020 BKN250
     FM280500 21005KT P6SM OVC007
     FM280900 20013KT P6SM OVC010
     FM281100 20008KT 6SM -RA BR OVC010
     FM281500 25009KT 4SM -RA BR OVC015=



000
FTUS46 KPQR 271725
TAFONP
TAF
KONP 271725Z 2718/2818 09009KT P6SM SCT025 SCT250
     FM272200 30007KT P6SM SCT020 BKN250
     FM280500 21005KT P6SM OVC007
     FM280900 20013KT P6SM OVC010
     FM281100 20008KT 6SM -RA BR OVC010
     FM281500 25009KT 4SM -RA BR OVC015=



000
FTUS46 KPQR 271725
TAFPDX
TAF
KPDX 271725Z 2718/2818 11007KT P6SM SCT020 SCT250
     FM272200 09010KT P6SM SCT250
     FM280300 16005KT P6SM SCT250
     FM281000 16007KT P6SM SCT025 OVC050
     FM281400 17008KT P6SM -RA SCT025 OVC050=



000
FTUS46 KPQR 271725
TAFTTD
TAF
KTTD 271725Z 2718/2818 09005KT P6SM SCT020 SCT250
     FM272000 09012KT P6SM SCT250
     FM280400 10008KT P6SM SCT250
     FM281000 15006KT P6SM SCT025 OVC050
     FM281400 18005KT P6SM -RA SCT025 OVC050=



000
FTUS46 KPQR 271725
TAFHIO
TAF
KHIO 271725Z 2718/2818 VRB03KT P6SM BKN015 BKN250
     FM272000 09007KT P6SM SCT250
     FM280300 VRB04KT P6SM SCT250
     FM280900 16006KT P6SM SCT025 OVC050
     FM281300 18007KT P6SM -RA SCT025 OVC050=



000
FTUS46 KPQR 271725
TAFSLE
TAF
KSLE 271725Z 2718/2818 VRB03KT P6SM SCT030 SCT250
     FM272100 01007KT P6SM SCT250
     FM280200 VRB03KT P6SM SCT250
     FM280900 18006KT 6SM BR OVC030
     FM281300 17009KT 4SM -RA BR OVC015=



000
FTUS46 KPQR 271725
TAFTTD
TAF
KTTD 271725Z 2718/2818 09005KT P6SM SCT020 SCT250
     FM272000 09012KT P6SM SCT250
     FM280400 10008KT P6SM SCT250
     FM281000 15006KT P6SM SCT025 OVC050
     FM281400 18005KT P6SM -RA SCT025 OVC050=



000
FTUS46 KPQR 271725
TAFEUG
TAF
KEUG 271725Z 2718/2818 01006KT 6SM BR OVC006
     FM271930 35007KT P6SM SCT006 SCT250
     FM280200 25005KT P6SM SCT250
     FM280900 18010KT 6SM BR OVC020
     FM281300 18007KT 4SM -RA BR OVC015=



000
FTUS46 KPQR 271725
TAFHIO
TAF
KHIO 271725Z 2718/2818 VRB03KT P6SM BKN015 BKN250
     FM272000 09007KT P6SM SCT250
     FM280300 VRB04KT P6SM SCT250
     FM280900 16006KT P6SM SCT025 OVC050
     FM281300 18007KT P6SM -RA SCT025 OVC050=



000
FTUS46 KPQR 271725
TAFPDX
TAF
KPDX 271725Z 2718/2818 11007KT P6SM SCT020 SCT250
     FM272200 09010KT P6SM SCT250
     FM280300 16005KT P6SM SCT250
     FM281000 16007KT P6SM SCT025 OVC050
     FM281400 17008KT P6SM -RA SCT025 OVC050=



000
FTUS46 KPQR 271725
TAFONP
TAF
KONP 271725Z 2718/2818 09009KT P6SM SCT025 SCT250
     FM272200 30007KT P6SM SCT020 BKN250
     FM280500 21005KT P6SM OVC007
     FM280900 20013KT P6SM OVC010
     FM281100 20008KT 6SM -RA BR OVC010
     FM281500 25009KT 4SM -RA BR OVC015=



000
FTUS46 KPQR 271725
TAFAST
TAF
KAST 271725Z 2718/2818 08008KT P6SM SCT025 SCT250
     FM280500 20010KT P6SM OVC012
     FM280900 22010KT P6SM OVC015
     FM281100 24011KT 6SM -RA BR OVC015
     FM281500 26010KT 4SM -RA BR OVC015=



000
FTUS46 KPQR 271725
TAFEUG
TAF
KEUG 271725Z 2718/2818 01006KT 6SM BR OVC006
     FM271930 35007KT P6SM SCT006 SCT250
     FM280200 25005KT P6SM SCT250
     FM280900 18010KT 6SM BR OVC020
     FM281300 18007KT 4SM -RA BR OVC015=



000
FTUS46 KPQR 271725
TAFSLE
TAF
KSLE 271725Z 2718/2818 VRB03KT P6SM SCT030 SCT250
     FM272100 01007KT P6SM SCT250
     FM280200 VRB03KT P6SM SCT250
     FM280900 18006KT 6SM BR OVC030
     FM281300 17009KT 4SM -RA BR OVC015=



000
FTUS46 KPQR 271625 AAC
TAFSLE
TAF AMD
KSLE 271625Z 2716/2812 VRB03KT P6SM SCT005 SCT250
     FM272100 03007KT P6SM SCT250
     FM280200 VRB03KT P6SM SCT250
     FM280900 18006KT P6SM OVC050=



000
FTUS46 KPQR 271625 AAC
TAFSLE
TAF AMD
KSLE 271625Z 2716/2812 VRB03KT P6SM SCT005 SCT250
     FM272100 03007KT P6SM SCT250
     FM280200 VRB03KT P6SM SCT250
     FM280900 18006KT P6SM OVC050=



000
FTUS46 KPQR 271600 AAB
TAFSLE
TAF AMD
KSLE 271600Z 2716/2812 16004KT 1SM BR OVC002
     FM271700 VRB03KT P6SM SCT080 SCT250
     FM272100 03007KT P6SM SCT250
     FM280200 VRB03KT P6SM SCT250
     FM280900 18006KT P6SM OVC050=



000
FTUS46 KPQR 271600 AAB
TAFSLE
TAF AMD
KSLE 271600Z 2716/2812 16004KT 1SM BR OVC002
     FM271700 VRB03KT P6SM SCT080 SCT250
     FM272100 03007KT P6SM SCT250
     FM280200 VRB03KT P6SM SCT250
     FM280900 18006KT P6SM OVC050=



000
FTUS46 KPQR 271600 AAB
TAFSLE
TAF AMD
KSLE 271600Z 2716/2812 16004KT 1SM BR OVC002
     FM271700 VRB03KT P6SM SCT080 SCT250
     FM272100 03007KT P6SM SCT250
     FM280200 VRB03KT P6SM SCT250
     FM280900 18006KT P6SM OVC050=



000
FTUS46 KPQR 271600 AAB
TAFSLE
TAF AMD
KSLE 271600Z 2716/2812 16004KT 1SM BR OVC002
     FM271700 VRB03KT P6SM SCT080 SCT250
     FM272100 03007KT P6SM SCT250
     FM280200 VRB03KT P6SM SCT250
     FM280900 18006KT P6SM OVC050=



000
FTUS46 KPQR 271557 AAB
TAFPDX
TAF AMD
KPDX 271557Z 2716/2812 10004KT P6SM SCT007 SCT250
     FM271700 11007KT P6SM SCT080 SCT250
     FM272200 09010KT P6SM SCT250
     FM280400 16005KT P6SM SCT250
     FM281000 16007KT P6SM OVC050=



000
FTUS46 KPQR 271557 AAB
TAFPDX
TAF AMD
KPDX 271557Z 2716/2812 10004KT P6SM SCT007 SCT250
     FM271700 11007KT P6SM SCT080 SCT250
     FM272200 09010KT P6SM SCT250
     FM280400 16005KT P6SM SCT250
     FM281000 16007KT P6SM OVC050=



000
FTUS46 KPQR 271512 AAA
TAFHIO
TAF AMD
KHIO 271512Z 2715/2812 00000KT P6SM BKN035 OVC080
     FM271600 VRB03KT P6SM SCT080 SCT250
     FM272000 08007KT P6SM SCT250
     FM280300 VRB04KT P6SM SCT250
     FM280900 16006KT P6SM OVC050=



000
FTUS46 KPQR 271512 AAA
TAFHIO
TAF AMD
KHIO 271512Z 2715/2812 00000KT P6SM BKN035 OVC080
     FM271600 VRB03KT P6SM SCT080 SCT250
     FM272000 08007KT P6SM SCT250
     FM280300 VRB04KT P6SM SCT250
     FM280900 16006KT P6SM OVC050=



000
FTUS46 KPQR 271454 AAA
TAFPDX
TAF AMD
KPDX 271454Z 2715/2812 10004KT P6SM SCT004 BKN040 BKN080
      TEMPO 2715/2717 BKN008
     FM271700 11007KT P6SM SCT080 SCT250
     FM272200 09010KT P6SM SCT250
     FM280400 16005KT P6SM SCT250
     FM281000 16007KT P6SM OVC050=



000
FTUS46 KPQR 271341 AAA
TAFSLE
TAF AMD
KSLE 271341Z 2714/2812 16004KT 2SM BR OVC003
     FM271600 VRB03KT P6SM SCT080 SCT250
     FM272100 03007KT P6SM SCT250
     FM280200 VRB03KT P6SM SCT250
     FM280900 18006KT P6SM OVC050=



000
FTUS46 KPQR 271341 AAA
TAFSLE
TAF AMD
KSLE 271341Z 2714/2812 16004KT 2SM BR OVC003
     FM271600 VRB03KT P6SM SCT080 SCT250
     FM272100 03007KT P6SM SCT250
     FM280200 VRB03KT P6SM SCT250
     FM280900 18006KT P6SM OVC050=



000
FTUS46 KPQR 271126
TAFSLE
TAF
KSLE 271126Z 2712/2812 16004KT 2SM BR SCT003 BKN080
     FM271600 VRB03KT P6SM SCT080 SCT250
     FM272100 03007KT P6SM SCT250
     FM280200 VRB03KT P6SM SCT250
     FM280900 18006KT P6SM OVC050=



000
FTUS46 KPQR 271126
TAFEUG
TAF
KEUG 271126Z 2712/2812 VRB03KT 1/4SM FG OVC002
     FM271600 VRB03KT 1SM BR BKN003
     FM271800 01006KT P6SM SCT250
     FM280200 27005KT P6SM SCT250
     FM280800 18007KT P6SM OVC050=



000
FTUS46 KPQR 271126
TAFHIO
TAF
KHIO 271126Z 2712/2812 00000KT P6SM BKN015 BKN035 OVC080
     FM271300 00000KT P6SM BKN035 OVC080
      TEMPO 2713/2716 4SM BR
     FM271600 VRB03KT P6SM SCT080 SCT250
     FM272000 08007KT P6SM SCT250
     FM280300 VRB04KT P6SM SCT250
     FM280900 16006KT P6SM OVC050=



000
FTUS46 KPQR 271126
TAFEUG
TAF
KEUG 271126Z 2712/2812 VRB03KT 1/4SM FG OVC002
     FM271600 VRB03KT 1SM BR BKN003
     FM271800 01006KT P6SM SCT250
     FM280200 27005KT P6SM SCT250
     FM280800 18007KT P6SM OVC050=



000
FTUS46 KPQR 271126
TAFSLE
TAF
KSLE 271126Z 2712/2812 16004KT 2SM BR SCT003 BKN080
     FM271600 VRB03KT P6SM SCT080 SCT250
     FM272100 03007KT P6SM SCT250
     FM280200 VRB03KT P6SM SCT250
     FM280900 18006KT P6SM OVC050=



000
FTUS46 KPQR 271126
TAFHIO
TAF
KHIO 271126Z 2712/2812 00000KT P6SM BKN015 BKN035 OVC080
     FM271300 00000KT P6SM BKN035 OVC080
      TEMPO 2713/2716 4SM BR
     FM271600 VRB03KT P6SM SCT080 SCT250
     FM272000 08007KT P6SM SCT250
     FM280300 VRB04KT P6SM SCT250
     FM280900 16006KT P6SM OVC050=



000
FTUS46 KPQR 271126
TAFONP
TAF
KONP 271126Z 2712/2812 09006KT P6SM SCT080 SCT250
     FM272100 30007KT P6SM SCT020 BKN250
     FM280200 21005KT P6SM OVC007
     FM280900 20013G21KT P6SM OVC010=



000
FTUS46 KPQR 271126
TAFPDX
TAF
KPDX 271126Z 2712/2812 10004KT P6SM BKN040 BKN080
     FM271600 11007KT P6SM SCT080 SCT250
     FM272200 09010KT P6SM SCT250
     FM280400 16005KT P6SM SCT250
     FM281000 16007KT P6SM OVC050=



000
FTUS46 KPQR 271126
TAFAST
TAF
KAST 271126Z 2712/2812 12005KT P6SM OVC025
     FM271500 06005KT P6SM SCT025 SCT250
     FM280400 20004KT P6SM OVC012
     FM280900 21010KT P6SM OVC015=



000
FTUS46 KPQR 271126
TAFTTD
TAF
KTTD 271126Z 2712/2812 09003KT P6SM BKN040 BKN080
     FM271600 09005KT P6SM SCT080 SCT250
     FM272000 09012KT P6SM SCT250
     FM280400 10008KT P6SM SCT250
     FM281000 12006KT P6SM OVC050=



000
FTUS46 KPQR 271126
TAFHIO
TAF
KHIO 271126Z 2712/2812 00000KT P6SM BKN015 BKN035 OVC080
     FM271300 00000KT P6SM BKN035 OVC080
      TEMPO 2713/2716 4SM BR
     FM271600 VRB03KT P6SM SCT080 SCT250
     FM272000 08007KT P6SM SCT250
     FM280300 VRB04KT P6SM SCT250
     FM280900 16006KT P6SM OVC050=



000
FTUS46 KPQR 271126
TAFPDX
TAF
KPDX 271126Z 2712/2812 10004KT P6SM BKN040 BKN080
     FM271600 11007KT P6SM SCT080 SCT250
     FM272200 09010KT P6SM SCT250
     FM280400 16005KT P6SM SCT250
     FM281000 16007KT P6SM OVC050=



000
FTUS46 KPQR 271126
TAFEUG
TAF
KEUG 271126Z 2712/2812 VRB03KT 1/4SM FG OVC002
     FM271600 VRB03KT 1SM BR BKN003
     FM271800 01006KT P6SM SCT250
     FM280200 27005KT P6SM SCT250
     FM280800 18007KT P6SM OVC050=



000
FTUS46 KPQR 271126
TAFSLE
TAF
KSLE 271126Z 2712/2812 16004KT 2SM BR SCT003 BKN080
     FM271600 VRB03KT P6SM SCT080 SCT250
     FM272100 03007KT P6SM SCT250
     FM280200 VRB03KT P6SM SCT250
     FM280900 18006KT P6SM OVC050=



000
FTUS46 KPQR 271126
TAFAST
TAF
KAST 271126Z 2712/2812 12005KT P6SM OVC025
     FM271500 06005KT P6SM SCT025 SCT250
     FM280400 20004KT P6SM OVC012
     FM280900 21010KT P6SM OVC015=



000
FTUS46 KPQR 271126
TAFEUG
TAF
KEUG 271126Z 2712/2812 VRB03KT 1/4SM FG OVC002
     FM271600 VRB03KT 1SM BR BKN003
     FM271800 01006KT P6SM SCT250
     FM280200 27005KT P6SM SCT250
     FM280800 18007KT P6SM OVC050=



000
FTUS46 KPQR 271126
TAFTTD
TAF
KTTD 271126Z 2712/2812 09003KT P6SM BKN040 BKN080
     FM271600 09005KT P6SM SCT080 SCT250
     FM272000 09012KT P6SM SCT250
     FM280400 10008KT P6SM SCT250
     FM281000 12006KT P6SM OVC050=



000
FTUS46 KPQR 271126
TAFSLE
TAF
KSLE 271126Z 2712/2812 16004KT 2SM BR SCT003 BKN080
     FM271600 VRB03KT P6SM SCT080 SCT250
     FM272100 03007KT P6SM SCT250
     FM280200 VRB03KT P6SM SCT250
     FM280900 18006KT P6SM OVC050=



000
FTUS46 KPQR 271126
TAFONP
TAF
KONP 271126Z 2712/2812 09006KT P6SM SCT080 SCT250
     FM272100 30007KT P6SM SCT020 BKN250
     FM280200 21005KT P6SM OVC007
     FM280900 20013G21KT P6SM OVC010=



000
FTUS46 KPQR 271045 AAC
TAFAST
TAF AMD
KAST 271045Z 2711/2806 10005KT P6SM SCT015 OVC025
     FM271500 06005KT P6SM SCT025 BKN250
     FM280200 20004KT P6SM OVC015=



000
FTUS46 KPQR 271045 AAC
TAFAST
TAF AMD
KAST 271045Z 2711/2806 10005KT P6SM SCT015 OVC025
     FM271500 06005KT P6SM SCT025 BKN250
     FM280200 20004KT P6SM OVC015=



000
FTUS46 KPQR 271042 AAB
TAFSLE
TAF AMD
KSLE 271042Z 2711/2806 16004KT P6SM SCT040 OVC080
     FM271200 VRB03KT 3SM BR SCT004 BKN080
     FM271600 VRB03KT P6SM SCT250
     FM272100 03007KT P6SM SCT250
     FM280200 VRB03KT P6SM BKN250=



000
FTUS46 KPQR 271042 AAB
TAFSLE
TAF AMD
KSLE 271042Z 2711/2806 16004KT P6SM SCT040 OVC080
     FM271200 VRB03KT 3SM BR SCT004 BKN080
     FM271600 VRB03KT P6SM SCT250
     FM272100 03007KT P6SM SCT250
     FM280200 VRB03KT P6SM BKN250=



000
FTUS46 KPQR 271042 AAB
TAFEUG
TAF AMD
KEUG 271042Z 2711/2806 VRB03KT 1/4SM FG OVC002
     FM271600 VRB03KT 1SM BR BKN003
     FM271800 01005KT P6SM SCT250
     FM280200 22007KT P6SM BKN250=



000
FTUS46 KPQR 271042 AAB
TAFEUG
TAF AMD
KEUG 271042Z 2711/2806 VRB03KT 1/4SM FG OVC002
     FM271600 VRB03KT 1SM BR BKN003
     FM271800 01005KT P6SM SCT250
     FM280200 22007KT P6SM BKN250=



000
FTUS46 KPQR 271042 AAB
TAFSLE
TAF AMD
KSLE 271042Z 2711/2806 16004KT P6SM SCT040 OVC080
     FM271200 VRB03KT 3SM BR SCT004 BKN080
     FM271600 VRB03KT P6SM SCT250
     FM272100 03007KT P6SM SCT250
     FM280200 VRB03KT P6SM BKN250=



000
FTUS46 KPQR 271042 AAB
TAFSLE
TAF AMD
KSLE 271042Z 2711/2806 16004KT P6SM SCT040 OVC080
     FM271200 VRB03KT 3SM BR SCT004 BKN080
     FM271600 VRB03KT P6SM SCT250
     FM272100 03007KT P6SM SCT250
     FM280200 VRB03KT P6SM BKN250=



000
FTUS46 KPQR 271040 AAA
TAFTTD
TAF AMD
KTTD 271040Z 2711/2806 09003KT P6SM BKN035 OVC080
     FM271700 09007KT P6SM SCT080 SCT250
     FM272000 09012KT P6SM SCT250
     FM280400 10008KT P6SM SCT250=



000
FTUS46 KPQR 271040 AAA
TAFTTD
TAF AMD
KTTD 271040Z 2711/2806 09003KT P6SM BKN035 OVC080
     FM271700 09007KT P6SM SCT080 SCT250
     FM272000 09012KT P6SM SCT250
     FM280400 10008KT P6SM SCT250=



000
FTUS46 KPQR 271040 AAA
TAFTTD
TAF AMD
KTTD 271040Z 2711/2806 09003KT P6SM BKN035 OVC080
     FM271700 09007KT P6SM SCT080 SCT250
     FM272000 09012KT P6SM SCT250
     FM280400 10008KT P6SM SCT250=



000
FTUS46 KPQR 271039 AAB
TAFHIO
TAF AMD
KHIO 271039Z 2711/2806 10003KT P6SM SCT015 BKN035 OVC080
      TEMPO 2712/2715 4SM BR
     FM271600 VRB03KT P6SM SCT080 SCT250
     FM272000 08007KT P6SM SCT250
     FM280300 VRB04KT P6SM SCT250=



000
FTUS46 KPQR 271039 AAB
TAFHIO
TAF AMD
KHIO 271039Z 2711/2806 10003KT P6SM SCT015 BKN035 OVC080
      TEMPO 2712/2715 4SM BR
     FM271600 VRB03KT P6SM SCT080 SCT250
     FM272000 08007KT P6SM SCT250
     FM280300 VRB04KT P6SM SCT250=



000
FTUS46 KPQR 271039 AAB
TAFHIO
TAF AMD
KHIO 271039Z 2711/2806 10003KT P6SM SCT015 BKN035 OVC080
      TEMPO 2712/2715 4SM BR
     FM271600 VRB03KT P6SM SCT080 SCT250
     FM272000 08007KT P6SM SCT250
     FM280300 VRB04KT P6SM SCT250=



000
FTUS46 KPQR 271037 AAB
TAFPDX
TAF AMD
KPDX 271037Z 2711/2806 10004KT P6SM BKN035 OVC080
     FM271600 11007KT P6SM SCT080 SCT250
     FM272200 09010KT P6SM SCT250
     FM280400 19005KT P6SM OVC250=



000
FTUS46 KPQR 271037 AAB
TAFPDX
TAF AMD
KPDX 271037Z 2711/2806 10004KT P6SM BKN035 OVC080
     FM271600 11007KT P6SM SCT080 SCT250
     FM272200 09010KT P6SM SCT250
     FM280400 19005KT P6SM OVC250=



000
FTUS46 KPQR 271037 AAB
TAFPDX
TAF AMD
KPDX 271037Z 2711/2806 10004KT P6SM BKN035 OVC080
     FM271600 11007KT P6SM SCT080 SCT250
     FM272200 09010KT P6SM SCT250
     FM280400 19005KT P6SM OVC250=



000
FTUS46 KPQR 271037 AAB
TAFPDX
TAF AMD
KPDX 271037Z 2711/2806 10004KT P6SM BKN035 OVC080
     FM271600 11007KT P6SM SCT080 SCT250
     FM272200 09010KT P6SM SCT250
     FM280400 19005KT P6SM OVC250=



000
FTUS46 KPQR 271032 AAB
TAFONP
TAF AMD
KONP 271032Z 2711/2806 09006KT P6SM OVC080
     FM271600 09004KT P6SM SCT080 SCT250
     FM272100 29008KT P6SM SCT020 BKN250
     FM280100 21003KT P6SM OVC015=



000
FTUS46 KPQR 271032 AAB
TAFONP
TAF AMD
KONP 271032Z 2711/2806 09006KT P6SM OVC080
     FM271600 09004KT P6SM SCT080 SCT250
     FM272100 29008KT P6SM SCT020 BKN250
     FM280100 21003KT P6SM OVC015=



000
FTUS46 KPQR 271030 AAB
TAFAST
TAF AMD
KAST 271030Z 2711/2806 10005KT 5SM BR SCT010 OVC018
     FM271600 06005KT P6SM SCT018 BKN250
     FM280200 20004KT P6SM OVC015=



000
FTUS46 KPQR 271030 AAB
TAFAST
TAF AMD
KAST 271030Z 2711/2806 10005KT 5SM BR SCT010 OVC018
     FM271600 06005KT P6SM SCT018 BKN250
     FM280200 20004KT P6SM OVC015=



000
FTUS46 KPQR 270910 AAA
TAFAST
TAF AMD
KAST 270910Z 2709/2806 10005KT 4SM -RA BR OVC008
     FM271200 VRB03KT 6SM BR SCT009 BKN015
     FM271800 06005KT P6SM SCT018 BKN250
     FM280200 20004KT P6SM OVC015=



000
FTUS46 KPQR 270910 AAA
TAFONP
TAF AMD
KONP 270910Z 2709/2806 10004KT P6SM OVC080
     FM271000 VRB03KT 3SM BR SCT006 BKN080
     FM271600 09004KT P6SM SCT080 SCT250
     FM272100 29008KT P6SM SCT020 BKN250
     FM280100 21003KT P6SM OVC015=



000
FTUS46 KPQR 270910 AAA
TAFAST
TAF AMD
KAST 270910Z 2709/2806 10005KT 4SM -RA BR OVC008
     FM271200 VRB03KT 6SM BR SCT009 BKN015
     FM271800 06005KT P6SM SCT018 BKN250
     FM280200 20004KT P6SM OVC015=



000
FTUS46 KPQR 270908 AAA
TAFSLE
TAF AMD
KSLE 270908Z 2709/2806 16004KT P6SM SCT040 OVC080
     FM271000 VRB03KT 3SM BR SCT004 BKN080
     FM271600 VRB03KT P6SM SCT250
     FM272100 03007KT P6SM SCT250
     FM280200 VRB03KT P6SM BKN250=



000
FTUS46 KPQR 270907 AAA
TAFHIO
TAF AMD
KHIO 270907Z 2709/2806 15006KT P6SM OVC015
     FM271200 VRB03KT 2SM BR SCT004 SCT015 BKN080
     FM271600 VRB03KT P6SM SCT080 SCT250
     FM272000 08007KT P6SM SCT250
     FM280300 VRB04KT P6SM BKN250=



000
FTUS46 KPQR 270907 AAA
TAFHIO
TAF AMD
KHIO 270907Z 2709/2806 15006KT P6SM OVC015
     FM271200 VRB03KT 2SM BR SCT004 SCT015 BKN080
     FM271600 VRB03KT P6SM SCT080 SCT250
     FM272000 08007KT P6SM SCT250
     FM280300 VRB04KT P6SM BKN250=



000
FTUS46 KPQR 270906 AAA
TAFPDX
TAF AMD
KPDX 270906Z 2709/2806 10005KT P6SM OVC015
     FM271200 00000KT P6SM SCT015 OVC080
     FM271700 11007KT P6SM SCT080 SCT250
     FM272200 09012G20KT P6SM SCT250
     FM280400 19005KT P6SM OVC250=



000
FTUS46 KPQR 270829 AAA
TAFEUG
TAF AMD
KEUG 270829Z 2708/2806 VRB03KT 1/2SM FG OVC004
     FM271600 01005KT P6SM FEW250
     FM280200 22007KT P6SM BKN250=



000
FTUS46 KPQR 270829 AAA
TAFEUG
TAF AMD
KEUG 270829Z 2708/2806 VRB03KT 1/2SM FG OVC004
     FM271600 01005KT P6SM FEW250
     FM280200 22007KT P6SM BKN250=



000
FTUS46 KPQR 270539
TAFAST
TAF
KAST 270539Z 2706/2806 10005KT 3SM -RA BR SCT005 OVC011
     FM271200 VRB03KT 6SM BR SCT009 BKN015
     FM271800 06005KT P6SM SCT018 BKN250
     FM280200 20004KT P6SM OVC015=



000
FTUS46 KPQR 270539
TAFTTD
TAF
KTTD 270539Z 2706/2806 VRB03KT P6SM -RA OVC025
     FM271100 VRB03KT P6SM SCT025
     FM271700 09007KT P6SM SCT250
     FM272000 09014G22KT P6SM BKN250
     FM280400 10011KT P6SM OVC250=



000
FTUS46 KPQR 270539
TAFEUG
TAF
KEUG 270539Z 2706/2806 VRB03KT P6SM SCT030 OVC070
     FM270900 VRB03KT 4SM BR BKN250
     FM271100 VRB03KT 2SM BR SCT004 SCT250
     FM271600 01005KT P6SM FEW250
     FM280200 22007KT P6SM BKN250=



000
FTUS46 KPQR 270539
TAFSLE
TAF
KSLE 270539Z 2706/2806 16008KT P6SM OVC030
     FM270800 16004KT P6SM SCT040 BKN090
     FM271600 VRB03KT P6SM SCT250
     FM272100 03007KT P6SM SCT250
     FM280200 VRB03KT P6SM BKN250=



000
FTUS46 KPQR 270539
TAFEUG
TAF
KEUG 270539Z 2706/2806 VRB03KT P6SM SCT030 OVC070
     FM270900 VRB03KT 4SM BR BKN250
     FM271100 VRB03KT 2SM BR SCT004 SCT250
     FM271600 01005KT P6SM FEW250
     FM280200 22007KT P6SM BKN250=



000
FTUS46 KPQR 270539
TAFEUG
TAF
KEUG 270539Z 2706/2806 VRB03KT P6SM SCT030 OVC070
     FM270900 VRB03KT 4SM BR BKN250
     FM271100 VRB03KT 2SM BR SCT004 SCT250
     FM271600 01005KT P6SM FEW250
     FM280200 22007KT P6SM BKN250=



000
FTUS46 KPQR 270539
TAFTTD
TAF
KTTD 270539Z 2706/2806 VRB03KT P6SM -RA OVC025
     FM271100 VRB03KT P6SM SCT025
     FM271700 09007KT P6SM SCT250
     FM272000 09014G22KT P6SM BKN250
     FM280400 10011KT P6SM OVC250=



000
FTUS46 KPQR 270539
TAFHIO
TAF
KHIO 270539Z 2706/2806 15006KT 4SM -RA BR OVC015
     FM270900 00000KT 5SM BR SCT020 BKN050
     FM271200 VRB03KT 2SM BR SCT004 BKN050
     FM271600 VRB03KT P6SM SCT250
     FM272000 08007KT P6SM SCT250
     FM280300 VRB04KT P6SM BKN250=



000
FTUS46 KPQR 270539
TAFHIO
TAF
KHIO 270539Z 2706/2806 15006KT 4SM -RA BR OVC015
     FM270900 00000KT 5SM BR SCT020 BKN050
     FM271200 VRB03KT 2SM BR SCT004 BKN050
     FM271600 VRB03KT P6SM SCT250
     FM272000 08007KT P6SM SCT250
     FM280300 VRB04KT P6SM BKN250=



000
FTUS46 KPQR 270539
TAFONP
TAF
KONP 270539Z 2706/2806 14004KT P6SM OVC013
     FM270800 VRB03KT 3SM BR SCT012 OVC025
     FM271200 09004KT 6SM BR SCT007 BKN015
     FM272100 29008KT P6SM SCT020 BKN250
     FM280100 21003KT P6SM OVC015=



000
FTUS46 KPQR 270539
TAFSLE
TAF
KSLE 270539Z 2706/2806 16008KT P6SM OVC030
     FM270800 16004KT P6SM SCT040 BKN090
     FM271600 VRB03KT P6SM SCT250
     FM272100 03007KT P6SM SCT250
     FM280200 VRB03KT P6SM BKN250=



000
FTUS46 KPQR 270539
TAFPDX
TAF
KPDX 270539Z 2706/2806 10005KT P6SM -RA SCT015 OVC023
     FM270900 00000KT P6SM SCT025
     FM271700 11007KT P6SM SCT250
     FM272200 09012G20KT P6SM SCT250
     FM280400 19005KT P6SM OVC250=



000
FTUS46 KPQR 270539
TAFHIO
TAF
KHIO 270539Z 2706/2806 15006KT 4SM -RA BR OVC015
     FM270900 00000KT 5SM BR SCT020 BKN050
     FM271200 VRB03KT 2SM BR SCT004 BKN050
     FM271600 VRB03KT P6SM SCT250
     FM272000 08007KT P6SM SCT250
     FM280300 VRB04KT P6SM BKN250=



000
FTUS46 KPQR 270539
TAFONP
TAF
KONP 270539Z 2706/2806 14004KT P6SM OVC013
     FM270800 VRB03KT 3SM BR SCT012 OVC025
     FM271200 09004KT 6SM BR SCT007 BKN015
     FM272100 29008KT P6SM SCT020 BKN250
     FM280100 21003KT P6SM OVC015=



000
FTUS46 KPQR 270539
TAFAST
TAF
KAST 270539Z 2706/2806 10005KT 3SM -RA BR SCT005 OVC011
     FM271200 VRB03KT 6SM BR SCT009 BKN015
     FM271800 06005KT P6SM SCT018 BKN250
     FM280200 20004KT P6SM OVC015=



000
FTUS46 KPQR 270539
TAFAST
TAF
KAST 270539Z 2706/2806 10005KT 3SM -RA BR SCT005 OVC011
     FM271200 VRB03KT 6SM BR SCT009 BKN015
     FM271800 06005KT P6SM SCT018 BKN250
     FM280200 20004KT P6SM OVC015=



000
FTUS46 KPQR 270539
TAFTTD
TAF
KTTD 270539Z 2706/2806 VRB03KT P6SM -RA OVC025
     FM271100 VRB03KT P6SM SCT025
     FM271700 09007KT P6SM SCT250
     FM272000 09014G22KT P6SM BKN250
     FM280400 10011KT P6SM OVC250=



000
FTUS46 KPQR 270539
TAFAST
TAF
KAST 270539Z 2706/2806 10005KT 3SM -RA BR SCT005 OVC011
     FM271200 VRB03KT 6SM BR SCT009 BKN015
     FM271800 06005KT P6SM SCT018 BKN250
     FM280200 20004KT P6SM OVC015=



000
FTUS46 KPQR 270539
TAFHIO
TAF
KHIO 270539Z 2706/2806 15006KT 4SM -RA BR OVC015
     FM270900 00000KT 5SM BR SCT020 BKN050
     FM271200 VRB03KT 2SM BR SCT004 BKN050
     FM271600 VRB03KT P6SM SCT250
     FM272000 08007KT P6SM SCT250
     FM280300 VRB04KT P6SM BKN250=



000
FTUS46 KPQR 270539
TAFEUG
TAF
KEUG 270539Z 2706/2806 VRB03KT P6SM SCT030 OVC070
     FM270900 VRB03KT 4SM BR BKN250
     FM271100 VRB03KT 2SM BR SCT004 SCT250
     FM271600 01005KT P6SM FEW250
     FM280200 22007KT P6SM BKN250=



000
FTUS46 KPQR 270539
TAFSLE
TAF
KSLE 270539Z 2706/2806 16008KT P6SM OVC030
     FM270800 16004KT P6SM SCT040 BKN090
     FM271600 VRB03KT P6SM SCT250
     FM272100 03007KT P6SM SCT250
     FM280200 VRB03KT P6SM BKN250=



000
FTUS46 KPQR 270539
TAFONP
TAF
KONP 270539Z 2706/2806 14004KT P6SM OVC013
     FM270800 VRB03KT 3SM BR SCT012 OVC025
     FM271200 09004KT 6SM BR SCT007 BKN015
     FM272100 29008KT P6SM SCT020 BKN250
     FM280100 21003KT P6SM OVC015=



000
FTUS46 KPQR 270539
TAFONP
TAF
KONP 270539Z 2706/2806 14004KT P6SM OVC013
     FM270800 VRB03KT 3SM BR SCT012 OVC025
     FM271200 09004KT 6SM BR SCT007 BKN015
     FM272100 29008KT P6SM SCT020 BKN250
     FM280100 21003KT P6SM OVC015=



000
FTUS46 KPQR 270539
TAFPDX
TAF
KPDX 270539Z 2706/2806 10005KT P6SM -RA SCT015 OVC023
     FM270900 00000KT P6SM SCT025
     FM271700 11007KT P6SM SCT250
     FM272200 09012G20KT P6SM SCT250
     FM280400 19005KT P6SM OVC250=



000
FTUS46 KPQR 270539
TAFTTD
TAF
KTTD 270539Z 2706/2806 VRB03KT P6SM -RA OVC025
     FM271100 VRB03KT P6SM SCT025
     FM271700 09007KT P6SM SCT250
     FM272000 09014G22KT P6SM BKN250
     FM280400 10011KT P6SM OVC250=



000
FTUS46 KPQR 270539
TAFPDX
TAF
KPDX 270539Z 2706/2806 10005KT P6SM -RA SCT015 OVC023
     FM270900 00000KT P6SM SCT025
     FM271700 11007KT P6SM SCT250
     FM272200 09012G20KT P6SM SCT250
     FM280400 19005KT P6SM OVC250=



000
FTUS46 KPQR 270254 AAC
TAFONP
TAF AMD
KONP 270254Z 2703/2724 20009KT P6SM OVC011
     FM270800 VRB03KT 3SM BR SCT012 OVC025
     FM271200 09004KT 6SM BR SCT007 BKN015
     FM272100 29008KT P6SM SCT020 BKN300=



000
FTUS46 KPQR 270254 AAC
TAFONP
TAF AMD
KONP 270254Z 2703/2724 20009KT P6SM OVC011
     FM270800 VRB03KT 3SM BR SCT012 OVC025
     FM271200 09004KT 6SM BR SCT007 BKN015
     FM272100 29008KT P6SM SCT020 BKN300=



000
FTUS46 KPQR 270254 AAC
TAFONP
TAF AMD
KONP 270254Z 2703/2724 20009KT P6SM OVC011
     FM270800 VRB03KT 3SM BR SCT012 OVC025
     FM271200 09004KT 6SM BR SCT007 BKN015
     FM272100 29008KT P6SM SCT020 BKN300=



000
FTUS46 KPQR 270251 AAB
TAFAST
TAF AMD
KAST 270251Z 2703/2724 09008KT 2SM -RA BR BKN006 OVC015
     FM271200 VRB03KT 6SM BR SCT009 BKN015
     FM271800 29007KT P6SM SCT018 BKN300=



000
FTUS46 KPQR 270251 AAB
TAFAST
TAF AMD
KAST 270251Z 2703/2724 09008KT 2SM -RA BR BKN006 OVC015
     FM271200 VRB03KT 6SM BR SCT009 BKN015
     FM271800 29007KT P6SM SCT018 BKN300=



000
FTUS46 KPQR 270251 AAB
TAFAST
TAF AMD
KAST 270251Z 2703/2724 09008KT 2SM -RA BR BKN006 OVC015
     FM271200 VRB03KT 6SM BR SCT009 BKN015
     FM271800 29007KT P6SM SCT018 BKN300=



000
FTUS46 KPQR 270251 AAB
TAFAST
TAF AMD
KAST 270251Z 2703/2724 09008KT 2SM -RA BR BKN006 OVC015
     FM271200 VRB03KT 6SM BR SCT009 BKN015
     FM271800 29007KT P6SM SCT018 BKN300=



000
FTUS46 KPQR 270245 AAB
TAFTTD
TAF AMD
KTTD 270245Z 2703/2724 VRB03KT P6SM -RA OVC025
     FM270900 VRB03KT P6SM BKN060 OVC080
     FM271700 09011KT P6SM BKN300=



000
FTUS46 KPQR 270245 AAB
TAFTTD
TAF AMD
KTTD 270245Z 2703/2724 VRB03KT P6SM -RA OVC025
     FM270900 VRB03KT P6SM BKN060 OVC080
     FM271700 09011KT P6SM BKN300=



000
FTUS46 KPQR 270243 AAB
TAFHIO
TAF AMD
KHIO 270243Z 2703/2724 18006KT P6SM -RA OVC020
      TEMPO 2703/2706 2SM -RA BR
     FM270900 00000KT P6SM SCT020 BKN045
     FM271600 VRB03KT P6SM SCT250
     FM272100 08007KT P6SM BKN300=



000
FTUS46 KPQR 270243 AAB
TAFHIO
TAF AMD
KHIO 270243Z 2703/2724 18006KT P6SM -RA OVC020
      TEMPO 2703/2706 2SM -RA BR
     FM270900 00000KT P6SM SCT020 BKN045
     FM271600 VRB03KT P6SM SCT250
     FM272100 08007KT P6SM BKN300=



000
FTUS46 KPQR 270243 AAB
TAFHIO
TAF AMD
KHIO 270243Z 2703/2724 18006KT P6SM -RA OVC020
      TEMPO 2703/2706 2SM -RA BR
     FM270900 00000KT P6SM SCT020 BKN045
     FM271600 VRB03KT P6SM SCT250
     FM272100 08007KT P6SM BKN300=



000
FTUS46 KPQR 270243 AAB
TAFHIO
TAF AMD
KHIO 270243Z 2703/2724 18006KT P6SM -RA OVC020
      TEMPO 2703/2706 2SM -RA BR
     FM270900 00000KT P6SM SCT020 BKN045
     FM271600 VRB03KT P6SM SCT250
     FM272100 08007KT P6SM BKN300=



000
FTUS46 KPQR 270240 AAB
TAFPDX
TAF AMD
KPDX 270240Z 2703/2724 VRB05KT P6SM -RA OVC025
     FM270900 00000KT P6SM SCT025
     FM271700 11007KT P6SM BKN300=



000
FTUS46 KPQR 270240 AAB
TAFPDX
TAF AMD
KPDX 270240Z 2703/2724 VRB05KT P6SM -RA OVC025
     FM270900 00000KT P6SM SCT025
     FM271700 11007KT P6SM BKN300=



000
FTUS46 KPQR 270235 AAB
TAFEUG
TAF AMD
KEUG 270235Z 2703/2724 13006KT 5SM -RA BR FEW007 OVC020
     FM270500 25005KT P6SM SCT100 BKN140
     FM271600 06004KT P6SM SCT300
     FM271900 35007KT P6SM BKN300=



000
FTUS46 KPQR 270235 AAB
TAFEUG
TAF AMD
KEUG 270235Z 2703/2724 13006KT 5SM -RA BR FEW007 OVC020
     FM270500 25005KT P6SM SCT100 BKN140
     FM271600 06004KT P6SM SCT300
     FM271900 35007KT P6SM BKN300=



000
FTUS46 KPQR 270235 AAB
TAFEUG
TAF AMD
KEUG 270235Z 2703/2724 13006KT 5SM -RA BR FEW007 OVC020
     FM270500 25005KT P6SM SCT100 BKN140
     FM271600 06004KT P6SM SCT300
     FM271900 35007KT P6SM BKN300=



000
FTUS46 KPQR 270235 AAB
TAFEUG
TAF AMD
KEUG 270235Z 2703/2724 13006KT 5SM -RA BR FEW007 OVC020
     FM270500 25005KT P6SM SCT100 BKN140
     FM271600 06004KT P6SM SCT300
     FM271900 35007KT P6SM BKN300=



000
FTUS46 KPQR 270211 AAA
TAFHIO
TAF AMD
KHIO 270211Z 2702/2724 18006KT P6SM -RA OVC030
     FM271000 00000KT 6SM BR SCT007 BKN100
     FM271600 VRB03KT P6SM SCT250
     FM272100 08007KT P6SM BKN300=



000
FTUS46 KPQR 270211 AAA
TAFHIO
TAF AMD
KHIO 270211Z 2702/2724 18006KT P6SM -RA OVC030
     FM271000 00000KT 6SM BR SCT007 BKN100
     FM271600 VRB03KT P6SM SCT250
     FM272100 08007KT P6SM BKN300=



000
FTUS46 KPQR 270210 AAA
TAFPDX
TAF AMD
KPDX 270210Z 2702/2724 18005KT P6SM -RA OVC035
     FM271000 00000KT P6SM BKN100
     FM271700 11007KT P6SM BKN300=



000
FTUS46 KPQR 270210 AAA
TAFPDX
TAF AMD
KPDX 270210Z 2702/2724 18005KT P6SM -RA OVC035
     FM271000 00000KT P6SM BKN100
     FM271700 11007KT P6SM BKN300=



000
FTUS46 KPQR 270210 AAA
TAFTTD
TAF AMD
KTTD 270210Z 2702/2724 VRB03KT P6SM -RA OVC035
     FM271000 VRB03KT P6SM BKN060 OVC080
     FM271700 09011KT P6SM BKN300=



000
FTUS46 KPQR 270210 AAA
TAFTTD
TAF AMD
KTTD 270210Z 2702/2724 VRB03KT P6SM -RA OVC035
     FM271000 VRB03KT P6SM BKN060 OVC080
     FM271700 09011KT P6SM BKN300=



000
FTUS46 KPQR 270106 AAA
TAFEUG
TAF AMD
KEUG 270106Z 2701/2724 18006KT P6SM BKN040 OVC060
      TEMPO 2701/2702 5SM -RA BR FEW007 OVC025
     FM270800 25005KT P6SM SCT100 BKN140
     FM271600 06004KT P6SM SCT300
     FM271900 35007KT P6SM BKN300=



000
FTUS46 KPQR 270106 AAA
TAFEUG
TAF AMD
KEUG 270106Z 2701/2724 18006KT P6SM BKN040 OVC060
      TEMPO 2701/2702 5SM -RA BR FEW007 OVC025
     FM270800 25005KT P6SM SCT100 BKN140
     FM271600 06004KT P6SM SCT300
     FM271900 35007KT P6SM BKN300=



000
FTUS46 KPQR 270105 AAB
TAFONP
TAF AMD
KONP 270105Z 2701/2724 20009KT 6SM -DZ BR SCT004 OVC015
      TEMPO 2701/2703 4SM -RA OVC011
     FM270600 VRB03KT 4SM BR SCT012 OVC025
     FM271200 VRB03KT 6SM BR SCT007 BKN015
     FM272100 29008KT P6SM SCT020 BKN300=



000
FTUS46 KPQR 270105 AAB
TAFONP
TAF AMD
KONP 270105Z 2701/2724 20009KT 6SM -DZ BR SCT004 OVC015
      TEMPO 2701/2703 4SM -RA OVC011
     FM270600 VRB03KT 4SM BR SCT012 OVC025
     FM271200 VRB03KT 6SM BR SCT007 BKN015
     FM272100 29008KT P6SM SCT020 BKN300=



000
FTUS46 KPQR 270102 AAA
TAFSLE
TAF AMD
KSLE 270102Z 2701/2724 16008KT P6SM -RA BKN025 OVC060
     FM270800 20004KT P6SM SCT060 BKN090
     FM271600 VRB03KT P6SM BKN300
     FM272100 03007KT P6SM BKN300=



000
FTUS46 KPQR 270102 AAA
TAFSLE
TAF AMD
KSLE 270102Z 2701/2724 16008KT P6SM -RA BKN025 OVC060
     FM270800 20004KT P6SM SCT060 BKN090
     FM271600 VRB03KT P6SM BKN300
     FM272100 03007KT P6SM BKN300=



000
FTUS46 KPQR 270058 AAA
TAFAST
TAF AMD
KAST 270058Z 2701/2724 12012KT 4SM -RA BR BKN020 OVC030
      TEMPO 2701/2703 1 1/2SM -RA BR BKN015 OVC020
     FM270300 19008KT 4SM -RA BR BKN012 OVC025
     FM270900 VRB03KT 6SM BR SCT009 BKN015
     FM271800 29007KT P6SM SCT018 BKN300=



000
FTUS46 KPQR 270058 AAA
TAFAST
TAF AMD
KAST 270058Z 2701/2724 12012KT 4SM -RA BR BKN020 OVC030
      TEMPO 2701/2703 1 1/2SM -RA BR BKN015 OVC020
     FM270300 19008KT 4SM -RA BR BKN012 OVC025
     FM270900 VRB03KT 6SM BR SCT009 BKN015
     FM271800 29007KT P6SM SCT018 BKN300=



000
FTUS46 KPQR 270058 AAA
TAFAST
TAF AMD
KAST 270058Z 2701/2724 12012KT 4SM -RA BR BKN020 OVC030
      TEMPO 2701/2703 1 1/2SM -RA BR BKN015 OVC020
     FM270300 19008KT 4SM -RA BR BKN012 OVC025
     FM270900 VRB03KT 6SM BR SCT009 BKN015
     FM271800 29007KT P6SM SCT018 BKN300=



000
FTUS46 KPQR 270025 AAA
TAFONP
TAF AMD
KONP 270025Z 2700/2724 20009KT 6SM -DZ BR SCT004 OVC015
      TEMPO 2700/2702 4SM -RA BKN004 OVC011
     FM270600 VRB03KT 4SM BR SCT012 OVC025
     FM271200 VRB03KT 6SM BR SCT007 BKN015
     FM272100 29008KT P6SM SCT020 BKN300=



000
FTUS46 KPQR 270025 AAA
TAFONP
TAF AMD
KONP 270025Z 2700/2724 20009KT 6SM -DZ BR SCT004 OVC015
      TEMPO 2700/2702 4SM -RA BKN004 OVC011
     FM270600 VRB03KT 4SM BR SCT012 OVC025
     FM271200 VRB03KT 6SM BR SCT007 BKN015
     FM272100 29008KT P6SM SCT020 BKN300=



000
FTUS46 KPQR 262328
TAFAST
TAF
KAST 262328Z 2700/2724 16012KT P6SM -RA BKN020 OVC030
     FM270300 19008KT 4SM -RA BR BKN012 OVC025
     FM270900 VRB03KT 6SM BR SCT009 BKN015
     FM271800 29007KT P6SM SCT018 BKN300=



000
FTUS46 KPQR 262328
TAFTTD
TAF
KTTD 262328Z 2700/2724 VRB03KT P6SM -RA OVC050
     FM271000 VRB03KT P6SM BKN060 OVC080
     FM271700 09011KT P6SM BKN300=



000
FTUS46 KPQR 262328
TAFAST
TAF
KAST 262328Z 2700/2724 16012KT P6SM -RA BKN020 OVC030
     FM270300 19008KT 4SM -RA BR BKN012 OVC025
     FM270900 VRB03KT 6SM BR SCT009 BKN015
     FM271800 29007KT P6SM SCT018 BKN300=



000
FTUS46 KPQR 262328
TAFONP
TAF
KONP 262328Z 2700/2724 20009KT 4SM -RA BR SCT004 OVC019
      TEMPO 2700/2702 1 1/2SM -RA BKN002 OVC011
     FM270600 VRB03KT 4SM BR SCT012 OVC025
     FM271200 VRB03KT 6SM BR SCT007 BKN015
     FM272100 29008KT P6SM SCT020 BKN300=



000
FTUS46 KPQR 262328
TAFHIO
TAF
KHIO 262328Z 2700/2724 20006KT P6SM -RA OVC045
     FM271000 00000KT 6SM BR SCT007 BKN100
     FM271600 VRB03KT P6SM SCT250
     FM272100 08007KT P6SM BKN300=



000
FTUS46 KPQR 262328
TAFPDX
TAF
KPDX 262328Z 2700/2724 24005KT P6SM -RA OVC050
     FM271000 00000KT P6SM BKN100
     FM271700 11007KT P6SM BKN300=



000
FTUS46 KPQR 262328
TAFSLE
TAF
KSLE 262328Z 2700/2724 16008KT P6SM -RA OVC060
     FM270800 20004KT P6SM SCT060 BKN090
     FM271600 VRB03KT P6SM BKN300
     FM272100 03007KT P6SM BKN300=



000
FTUS46 KPQR 262328
TAFEUG
TAF
KEUG 262328Z 2700/2724 18006KT P6SM BKN040 OVC060
     FM270800 25005KT P6SM SCT100 BKN140
     FM271600 06004KT P6SM SCT300
     FM271900 35007KT P6SM BKN300=



000
FTUS46 KPQR 262328
TAFTTD
TAF
KTTD 262328Z 2700/2724 VRB03KT P6SM -RA OVC050
     FM271000 VRB03KT P6SM BKN060 OVC080
     FM271700 09011KT P6SM BKN300=



000
FTUS46 KPQR 262328
TAFONP
TAF
KONP 262328Z 2700/2724 20009KT 4SM -RA BR SCT004 OVC019
      TEMPO 2700/2702 1 1/2SM -RA BKN002 OVC011
     FM270600 VRB03KT 4SM BR SCT012 OVC025
     FM271200 VRB03KT 6SM BR SCT007 BKN015
     FM272100 29008KT P6SM SCT020 BKN300=



000
FTUS46 KPQR 262328
TAFEUG
TAF
KEUG 262328Z 2700/2724 18006KT P6SM BKN040 OVC060
     FM270800 25005KT P6SM SCT100 BKN140
     FM271600 06004KT P6SM SCT300
     FM271900 35007KT P6SM BKN300=



000
FTUS46 KPQR 262328
TAFPDX
TAF
KPDX 262328Z 2700/2724 24005KT P6SM -RA OVC050
     FM271000 00000KT P6SM BKN100
     FM271700 11007KT P6SM BKN300=



000
FTUS46 KPQR 262328
TAFSLE
TAF
KSLE 262328Z 2700/2724 16008KT P6SM -RA OVC060
     FM270800 20004KT P6SM SCT060 BKN090
     FM271600 VRB03KT P6SM BKN300
     FM272100 03007KT P6SM BKN300=



000
FTUS46 KPQR 262328
TAFHIO
TAF
KHIO 262328Z 2700/2724 20006KT P6SM -RA OVC045
     FM271000 00000KT 6SM BR SCT007 BKN100
     FM271600 VRB03KT P6SM SCT250
     FM272100 08007KT P6SM BKN300=



000
FTUS46 KPQR 262203 AAA
TAFAST
TAF AMD
KAST 262203Z 2622/2718 16012KT P6SM -RA BKN025 OVC035
     FM270300 19008KT 4SM -RA BR BKN012 OVC025
     FM270900 VRB03KT 4SM BR SCT007 BKN012
     FM271400 VRB03KT 6SM BR SCT009 BKN015=



000
FTUS46 KPQR 262203 AAA
TAFAST
TAF AMD
KAST 262203Z 2622/2718 16012KT P6SM -RA BKN025 OVC035
     FM270300 19008KT 4SM -RA BR BKN012 OVC025
     FM270900 VRB03KT 4SM BR SCT007 BKN012
     FM271400 VRB03KT 6SM BR SCT009 BKN015=



000
FTUS46 KPQR 262203 AAA
TAFAST
TAF AMD
KAST 262203Z 2622/2718 16012KT P6SM -RA BKN025 OVC035
     FM270300 19008KT 4SM -RA BR BKN012 OVC025
     FM270900 VRB03KT 4SM BR SCT007 BKN012
     FM271400 VRB03KT 6SM BR SCT009 BKN015=



000
FTUS46 KPQR 262202 AAB
TAFONP
TAF AMD
KONP 262202Z 2622/2718 21008KT 1 1/2SM -RA SCT002 BKN006 OVC015
     FM270000 20009KT 4SM -RA BR OVC019
     FM270600 VRB03KT 4SM BR SCT012 OVC025
     FM271200 VRB03KT 6SM BR SCT007 BKN015=



000
FTUS46 KPQR 262202 AAB
TAFONP
TAF AMD
KONP 262202Z 2622/2718 21008KT 1 1/2SM -RA SCT002 BKN006 OVC015
     FM270000 20009KT 4SM -RA BR OVC019
     FM270600 VRB03KT 4SM BR SCT012 OVC025
     FM271200 VRB03KT 6SM BR SCT007 BKN015=



000
FTUS46 KPQR 262202 AAB
TAFONP
TAF AMD
KONP 262202Z 2622/2718 21008KT 1 1/2SM -RA SCT002 BKN006 OVC015
     FM270000 20009KT 4SM -RA BR OVC019
     FM270600 VRB03KT 4SM BR SCT012 OVC025
     FM271200 VRB03KT 6SM BR SCT007 BKN015=



000
FTUS46 KPQR 262054 AAA
TAFPDX
TAF AMD
KPDX 262054Z 2621/2718 10006KT P6SM SCT040 BKN060 OVC070
     FM262200 14005KT P6SM -RA OVC050
     FM270400 16004KT P6SM -DZ BKN060 OVC080
     FM271000 00000KT P6SM BKN100
     FM271700 VRB03KT P6SM SCT250=



000
FTUS46 KPQR 262054 AAA
TAFPDX
TAF AMD
KPDX 262054Z 2621/2718 10006KT P6SM SCT040 BKN060 OVC070
     FM262200 14005KT P6SM -RA OVC050
     FM270400 16004KT P6SM -DZ BKN060 OVC080
     FM271000 00000KT P6SM BKN100
     FM271700 VRB03KT P6SM SCT250=



000
FTUS46 KPQR 262054 AAA
TAFPDX
TAF AMD
KPDX 262054Z 2621/2718 10006KT P6SM SCT040 BKN060 OVC070
     FM262200 14005KT P6SM -RA OVC050
     FM270400 16004KT P6SM -DZ BKN060 OVC080
     FM271000 00000KT P6SM BKN100
     FM271700 VRB03KT P6SM SCT250=



000
FTUS46 KPQR 261951 CCA
TAFONP
TAF COR
KONP 261951Z 2620/2718 19014KT 5SM -RA SCT005 BKN011 OVC020
      TEMPO 2620/2624 BKN005
     FM270000 20009KT 4SM -RA BR OVC019
     FM270600 VRB03KT 4SM BR SCT012 OVC025
     FM271200 VRB03KT 6SM BR SCT007 BKN015=



000
FTUS46 KPQR 261951 CCA
TAFONP
TAF COR
KONP 261951Z 2620/2718 19014KT 5SM -RA SCT005 BKN011 OVC020
      TEMPO 2620/2624 BKN005
     FM270000 20009KT 4SM -RA BR OVC019
     FM270600 VRB03KT 4SM BR SCT012 OVC025
     FM271200 VRB03KT 6SM BR SCT007 BKN015=



000
FTUS46 KPQR 261946 AAA
TAFONP
TAF AMD
KONP 261946Z 2620/2718 19014KT 5SM -RA BKN005 BKN011 OVC020
      TEMPO 2620/2624 BKN005
     FM270000 20009KT 4SM -RA BR OVC019
     FM270600 VRB03KT 4SM BR SCT012 OVC025
     FM271200 VRB03KT 6SM BR SCT007 BKN015=



000
FTUS46 KPQR 261946 AAA
TAFONP
TAF AMD
KONP 261946Z 2620/2718 19014KT 5SM -RA BKN005 BKN011 OVC020
      TEMPO 2620/2624 BKN005
     FM270000 20009KT 4SM -RA BR OVC019
     FM270600 VRB03KT 4SM BR SCT012 OVC025
     FM271200 VRB03KT 6SM BR SCT007 BKN015=



000
FTUS46 KPQR 261725
TAFTTD
TAF
KTTD 261725Z 2618/2718 10005KT P6SM OVC100
     FM262100 10005KT P6SM -RA OVC050
     FM270400 VRB03KT P6SM BKN060 OVC080
     FM271100 00000KT P6SM BKN100
     FM271700 00000KT P6SM SCT250=



000
FTUS46 KPQR 261725
TAFEUG
TAF
KEUG 261725Z 2618/2718 16005KT P6SM SCT005 BKN070 OVC100
     FM262000 18006KT P6SM OVC060
     FM270100 25005KT P6SM SCT100 BKN140
     FM270900 VRB03KT 6SM BR SCT007 SCT100
     FM271600 06004KT P6SM SCT250=



000
FTUS46 KPQR 261725
TAFSLE
TAF
KSLE 261725Z 2618/2718 14005KT P6SM BKN070 OVC100
     FM262000 16008KT P6SM OVC060
     FM270300 20004KT P6SM SCT060 BKN090
     FM271000 VRB03KT 6SM BR SCT007 BKN090
     FM271600 04004KT P6SM SCT250=



000
FTUS46 KPQR 261725
TAFONP
TAF
KONP 261725Z 2618/2718 12008KT P6SM -DZ SCT009 BKN050 OVC100
     FM261900 19014G22KT P6SM -RA SCT009 SCT020 OVC050
     FM270000 20009KT 4SM -RA BR BKN025 OVC050
     FM270600 VRB03KT 4SM BR SCT012 OVC025
     FM271200 VRB03KT 6SM BR SCT007 BKN015=



000
FTUS46 KPQR 261725
TAFEUG
TAF
KEUG 261725Z 2618/2718 16005KT P6SM SCT005 BKN070 OVC100
     FM262000 18006KT P6SM OVC060
     FM270100 25005KT P6SM SCT100 BKN140
     FM270900 VRB03KT 6SM BR SCT007 SCT100
     FM271600 06004KT P6SM SCT250=



000
FTUS46 KPQR 261725
TAFHIO
TAF
KHIO 261725Z 2618/2718 VRB03KT P6SM OVC100
     FM262200 18004KT P6SM -RA OVC045
     FM270400 18004KT P6SM -DZ BKN050 OVC070
     FM271000 00000KT 6SM BR SCT007 BKN100
     FM271600 VRB03KT P6SM SCT250=



000
FTUS46 KPQR 261725
TAFPDX
TAF
KPDX 261725Z 2618/2718 15006KT P6SM SCT040 OVC100
     FM262200 16005KT P6SM -RA OVC050
     FM270400 16004KT P6SM -DZ BKN060 OVC080
     FM271000 00000KT P6SM BKN100
     FM271700 VRB03KT P6SM SCT250=



000
FTUS46 KPQR 261725
TAFTTD
TAF
KTTD 261725Z 2618/2718 10005KT P6SM OVC100
     FM262100 10005KT P6SM -RA OVC050
     FM270400 VRB03KT P6SM BKN060 OVC080
     FM271100 00000KT P6SM BKN100
     FM271700 00000KT P6SM SCT250=



000
FTUS46 KPQR 261725
TAFSLE
TAF
KSLE 261725Z 2618/2718 14005KT P6SM BKN070 OVC100
     FM262000 16008KT P6SM OVC060
     FM270300 20004KT P6SM SCT060 BKN090
     FM271000 VRB03KT 6SM BR SCT007 BKN090
     FM271600 04004KT P6SM SCT250=



000
FTUS46 KPQR 261725
TAFAST
TAF
KAST 261725Z 2618/2718 14005KT P6SM -RA OVC060
     FM262100 19012G20KT 5SM -RA BR OVC025
     FM270300 19008KT 4SM -RA BR BKN012 OVC025
     FM270900 VRB03KT 4SM BR SCT007 BKN012
     FM271400 VRB03KT 6SM BR SCT009 BKN015=



000
FTUS46 KPQR 261659 AAB
TAFONP
TAF AMD
KONP 261659Z 2617/2712 12008KT P6SM -DZ SCT009 BKN050 OVC100
     FM261900 19014KT P6SM -RA SCT020 OVC050
     FM270000 20009KT 6SM -RA BR BKN025 OVC050
     FM270600 VRB03KT 4SM BR SCT012 OVC025=



000
FTUS46 KPQR 261659 AAB
TAFONP
TAF AMD
KONP 261659Z 2617/2712 12008KT P6SM -DZ SCT009 BKN050 OVC100
     FM261900 19014KT P6SM -RA SCT020 OVC050
     FM270000 20009KT 6SM -RA BR BKN025 OVC050
     FM270600 VRB03KT 4SM BR SCT012 OVC025=



000
FTUS46 KPQR 261607 AAA
TAFONP
TAF AMD
KONP 261607Z 2616/2712 12008KT P6SM -DZ BKN009 BKN050 OVC100
     FM261900 19014KT P6SM -RA BKN020 OVC050
     FM270000 20009KT 6SM -RA BR BKN025 OVC050
     FM270600 VRB03KT 4SM BR SCT012 OVC025=



000
FTUS46 KPQR 261607 AAA
TAFONP
TAF AMD
KONP 261607Z 2616/2712 12008KT P6SM -DZ BKN009 BKN050 OVC100
     FM261900 19014KT P6SM -RA BKN020 OVC050
     FM270000 20009KT 6SM -RA BR BKN025 OVC050
     FM270600 VRB03KT 4SM BR SCT012 OVC025=



000
FTUS46 KPQR 261451 AAA
TAFPDX
TAF AMD
KPDX 261451Z 2615/2712 10005KT P6SM FEW040 SCT100 BKN250
     FM261600 15006KT P6SM SCT040 OVC100
     FM262100 17005KT P6SM -RA OVC050
     FM270400 16004KT P6SM BKN060 OVC080=



000
FTUS46 KPQR 261451 AAA
TAFPDX
TAF AMD
KPDX 261451Z 2615/2712 10005KT P6SM FEW040 SCT100 BKN250
     FM261600 15006KT P6SM SCT040 OVC100
     FM262100 17005KT P6SM -RA OVC050
     FM270400 16004KT P6SM BKN060 OVC080=



000
FTUS46 KPQR 261451 AAA
TAFPDX
TAF AMD
KPDX 261451Z 2615/2712 10005KT P6SM FEW040 SCT100 BKN250
     FM261600 15006KT P6SM SCT040 OVC100
     FM262100 17005KT P6SM -RA OVC050
     FM270400 16004KT P6SM BKN060 OVC080=



000
FTUS46 KPQR 261451 AAA
TAFPDX
TAF AMD
KPDX 261451Z 2615/2712 10005KT P6SM FEW040 SCT100 BKN250
     FM261600 15006KT P6SM SCT040 OVC100
     FM262100 17005KT P6SM -RA OVC050
     FM270400 16004KT P6SM BKN060 OVC080=



000
FTUS46 KPQR 261130
TAFEUG
TAF
KEUG 261130Z 2612/2712 17003KT 6SM BR SCT120 OVC200
     FM261600 17005KT P6SM BKN120
     FM261900 19006KT P6SM SCT070 OVC100
     FM270100 25005KT P6SM SCT100 BKN140
     FM270900 VRB03KT 6SM BR SCT100=



000
FTUS46 KPQR 261130
TAFONP
TAF
KONP 261130Z 2612/2712 10006KT P6SM OVC120
     FM261600 15011KT P6SM SCT070 OVC100
     FM261900 19014G21KT P6SM -RA SCT030 OVC050
     FM270000 20009KT 6SM -RA BR BKN025 OVC050
     FM270600 VRB03KT 4SM BR SCT012 OVC025=



000
FTUS46 KPQR 261130
TAFSLE
TAF
KSLE 261130Z 2612/2712 17003KT P6SM SCT120 OVC200
     FM261600 18005KT P6SM OVC100
     FM262000 19006KT P6SM OVC060
     FM270300 20004KT P6SM SCT060 BKN090
     FM271000 VRB03KT 6SM BR BKN090=



000
FTUS46 KPQR 261130
TAFPDX
TAF
KPDX 261130Z 2612/2712 10005KT P6SM SCT100 BKN250
     FM261600 15006KT P6SM OVC100
     FM262100 17005KT P6SM -RA OVC050
     FM270400 16004KT P6SM BKN060 OVC080=



000
FTUS46 KPQR 261130
TAFAST
TAF
KAST 261130Z 2612/2712 12003KT P6SM OVC120
     FM261700 14005KT P6SM -RA OVC080
     FM262100 19012G20KT 5SM -RA BR OVC025
     FM270300 19008KT 4SM -RA BR BKN012 OVC025
     FM270900 VRB03KT 4SM BR SCT007 BKN012=



000
FTUS46 KPQR 261130
TAFHIO
TAF
KHIO 261130Z 2612/2712 00000KT 6SM BR SCT120
     FM261500 VRB03KT P6SM OVC100
     FM262100 18004KT P6SM -RA OVC045
     FM270400 18004KT P6SM BKN050 OVC070=



000
FTUS46 KPQR 261130
TAFTTD
TAF
KTTD 261130Z 2612/2712 09003KT P6SM SCT100 BKN250
     FM261600 10005KT P6SM OVC100
     FM262100 10005KT P6SM -RA OVC050
     FM270400 VRB03KT P6SM BKN060 OVC080=



000
FTUS46 KPQR 261130
TAFONP
TAF
KONP 261130Z 2612/2712 10006KT P6SM OVC120
     FM261600 15011KT P6SM SCT070 OVC100
     FM261900 19014G21KT P6SM -RA SCT030 OVC050
     FM270000 20009KT 6SM -RA BR BKN025 OVC050
     FM270600 VRB03KT 4SM BR SCT012 OVC025=



000
FTUS46 KPQR 261130
TAFEUG
TAF
KEUG 261130Z 2612/2712 17003KT 6SM BR SCT120 OVC200
     FM261600 17005KT P6SM BKN120
     FM261900 19006KT P6SM SCT070 OVC100
     FM270100 25005KT P6SM SCT100 BKN140
     FM270900 VRB03KT 6SM BR SCT100=



000
FTUS46 KPQR 261130
TAFPDX
TAF
KPDX 261130Z 2612/2712 10005KT P6SM SCT100 BKN250
     FM261600 15006KT P6SM OVC100
     FM262100 17005KT P6SM -RA OVC050
     FM270400 16004KT P6SM BKN060 OVC080=



000
FTUS46 KPQR 261130
TAFEUG
TAF
KEUG 261130Z 2612/2712 17003KT 6SM BR SCT120 OVC200
     FM261600 17005KT P6SM BKN120
     FM261900 19006KT P6SM SCT070 OVC100
     FM270100 25005KT P6SM SCT100 BKN140
     FM270900 VRB03KT 6SM BR SCT100=



000
FTUS46 KPQR 261130
TAFHIO
TAF
KHIO 261130Z 2612/2712 00000KT 6SM BR SCT120
     FM261500 VRB03KT P6SM OVC100
     FM262100 18004KT P6SM -RA OVC045
     FM270400 18004KT P6SM BKN050 OVC070=



000
FTUS46 KPQR 261054 AAA
TAFONP
TAF AMD
KONP 261054Z 2611/2706 VRB03KT P6SM BKN250
     FM261200 14003KT 3SM BR SCT002 OVC120
     FM261600 16011KT P6SM SCT070 OVC100
     FM261900 19014G21KT P6SM -RA SCT030 OVC050
     FM270000 20009KT P6SM BKN035 OVC060=



000
FTUS46 KPQR 261054 AAA
TAFONP
TAF AMD
KONP 261054Z 2611/2706 VRB03KT P6SM BKN250
     FM261200 14003KT 3SM BR SCT002 OVC120
     FM261600 16011KT P6SM SCT070 OVC100
     FM261900 19014G21KT P6SM -RA SCT030 OVC050
     FM270000 20009KT P6SM BKN035 OVC060=



000
FTUS46 KPQR 261054 AAA
TAFONP
TAF AMD
KONP 261054Z 2611/2706 VRB03KT P6SM BKN250
     FM261200 14003KT 3SM BR SCT002 OVC120
     FM261600 16011KT P6SM SCT070 OVC100
     FM261900 19014G21KT P6SM -RA SCT030 OVC050
     FM270000 20009KT P6SM BKN035 OVC060=



000
FTUS46 KPQR 261035 AAA
TAFEUG
TAF AMD
KEUG 261035Z 2611/2706 VRB03KT P6SM SCT120
     FM261200 14003KT 4SM BR SCT004 SCT120
     FM261600 17005KT P6SM SCT010 BKN120
     FM261900 19006KT P6SM SCT070 OVC100
     FM270100 25005KT P6SM SCT100 BKN140=



000
FTUS46 KPQR 261035 AAA
TAFEUG
TAF AMD
KEUG 261035Z 2611/2706 VRB03KT P6SM SCT120
     FM261200 14003KT 4SM BR SCT004 SCT120
     FM261600 17005KT P6SM SCT010 BKN120
     FM261900 19006KT P6SM SCT070 OVC100
     FM270100 25005KT P6SM SCT100 BKN140=



000
FTUS46 KPQR 261035 AAA
TAFEUG
TAF AMD
KEUG 261035Z 2611/2706 VRB03KT P6SM SCT120
     FM261200 14003KT 4SM BR SCT004 SCT120
     FM261600 17005KT P6SM SCT010 BKN120
     FM261900 19006KT P6SM SCT070 OVC100
     FM270100 25005KT P6SM SCT100 BKN140=



000
FTUS46 KPQR 261035 AAA
TAFEUG
TAF AMD
KEUG 261035Z 2611/2706 VRB03KT P6SM SCT120
     FM261200 14003KT 4SM BR SCT004 SCT120
     FM261600 17005KT P6SM SCT010 BKN120
     FM261900 19006KT P6SM SCT070 OVC100
     FM270100 25005KT P6SM SCT100 BKN140=



000
FTUS46 KPQR 260850 AAA
TAFPDX
TAF AMD
KPDX 260850Z 2609/2706 VRB03KT P6SM SCT100 BKN250
     FM261600 15004KT P6SM OVC100
     FM262100 24005KT P6SM OVC050
     FM270400 16004KT P6SM BKN060 OVC080=



000
FTUS46 KPQR 260850 AAA
TAFPDX
TAF AMD
KPDX 260850Z 2609/2706 VRB03KT P6SM SCT100 BKN250
     FM261600 15004KT P6SM OVC100
     FM262100 24005KT P6SM OVC050
     FM270400 16004KT P6SM BKN060 OVC080=



000
FTUS46 KPQR 260850 AAA
TAFPDX
TAF AMD
KPDX 260850Z 2609/2706 VRB03KT P6SM SCT100 BKN250
     FM261600 15004KT P6SM OVC100
     FM262100 24005KT P6SM OVC050
     FM270400 16004KT P6SM BKN060 OVC080=



000
FTUS46 KPQR 260529
TAFPDX
TAF
KPDX 260529Z 2606/2706 29005KT P6SM SCT060 BKN250
     FM261000 VRB03KT P6SM SCT100 BKN250
     FM261600 15004KT P6SM OVC100
     FM262100 24005KT P6SM OVC050
     FM270400 16004KT P6SM BKN060 OVC080=



000
FTUS46 KPQR 260529
TAFAST
TAF
KAST 260529Z 2606/2706 VRB03KT P6SM SKC
     FM261200 14003KT 2SM BR BKN003
     FM261500 15006KT 5SM BR BKN005 OVC100
     FM261600 15005KT P6SM OVC080
     FM262000 18011KT 5SM -RA BR OVC025
     FM270200 19008KT P6SM SCT025 OVC035=



000
FTUS46 KPQR 260529
TAFTTD
TAF
KTTD 260529Z 2606/2706 VRB03KT P6SM SCT250
     FM261000 00000KT P6SM SCT100 BKN250
     FM261600 10003KT P6SM OVC100
     FM262000 VRB04KT P6SM OVC050
     FM270400 VRB03KT P6SM BKN060 OVC080=



000
FTUS46 KPQR 260529
TAFONP
TAF
KONP 260529Z 2606/2706 VRB03KT P6SM BKN250
     FM260900 14003KT 3SM BR SCT002 OVC120
     FM261600 16011KT P6SM SCT070 OVC100
     FM261900 19014G21KT P6SM -RA SCT030 OVC050
     FM270000 20009KT P6SM BKN035 OVC060=



000
FTUS46 KPQR 260529
TAFSLE
TAF
KSLE 260529Z 2606/2706 VRB04KT P6SM SCT250
     FM261200 16004KT P6SM SCT120 OVC200
     FM261600 18005KT P6SM OVC100
     FM262000 19006KT P6SM OVC060
     FM270300 20004KT P6SM SCT060 OVC090=



000
FTUS46 KPQR 260529
TAFHIO
TAF
KHIO 260529Z 2606/2706 VRB03KT P6SM SCT250
     FM261200 00000KT 3SM BR SCT002 SCT100
     FM261500 VRB03KT P6SM OVC100
     FM262100 22004KT P6SM OVC045
     FM270400 18004KT P6SM BKN050 OVC070=



000
FTUS46 KPQR 260529
TAFTTD
TAF
KTTD 260529Z 2606/2706 VRB03KT P6SM SCT250
     FM261000 00000KT P6SM SCT100 BKN250
     FM261600 10003KT P6SM OVC100
     FM262000 VRB04KT P6SM OVC050
     FM270400 VRB03KT P6SM BKN060 OVC080=



000
FTUS46 KPQR 260529
TAFEUG
TAF
KEUG 260529Z 2606/2706 VRB03KT P6SM FEW035 SCT050
     FM261000 14003KT 4SM BR SCT004 SCT120
     FM261600 17005KT P6SM SCT010 BKN120
     FM261900 19006KT P6SM SCT070 OVC100
     FM270100 25005KT P6SM SCT100 BKN140=



000
FTUS46 KPQR 260529
TAFONP
TAF
KONP 260529Z 2606/2706 VRB03KT P6SM BKN250
     FM260900 14003KT 3SM BR SCT002 OVC120
     FM261600 16011KT P6SM SCT070 OVC100
     FM261900 19014G21KT P6SM -RA SCT030 OVC050
     FM270000 20009KT P6SM BKN035 OVC060=



000
FTUS46 KPQR 260529
TAFAST
TAF
KAST 260529Z 2606/2706 VRB03KT P6SM SKC
     FM261200 14003KT 2SM BR BKN003
     FM261500 15006KT 5SM BR BKN005 OVC100
     FM261600 15005KT P6SM OVC080
     FM262000 18011KT 5SM -RA BR OVC025
     FM270200 19008KT P6SM SCT025 OVC035=



000
FTUS46 KPQR 260529
TAFEUG
TAF
KEUG 260529Z 2606/2706 VRB03KT P6SM FEW035 SCT050
     FM261000 14003KT 4SM BR SCT004 SCT120
     FM261600 17005KT P6SM SCT010 BKN120
     FM261900 19006KT P6SM SCT070 OVC100
     FM270100 25005KT P6SM SCT100 BKN140=



000
FTUS46 KPQR 260529
TAFHIO
TAF
KHIO 260529Z 2606/2706 VRB03KT P6SM SCT250
     FM261200 00000KT 3SM BR SCT002 SCT100
     FM261500 VRB03KT P6SM OVC100
     FM262100 22004KT P6SM OVC045
     FM270400 18004KT P6SM BKN050 OVC070=



000
FTUS46 KPQR 260529
TAFPDX
TAF
KPDX 260529Z 2606/2706 29005KT P6SM SCT060 BKN250
     FM261000 VRB03KT P6SM SCT100 BKN250
     FM261600 15004KT P6SM OVC100
     FM262100 24005KT P6SM OVC050
     FM270400 16004KT P6SM BKN060 OVC080=



000
FTUS46 KPQR 260529
TAFSLE
TAF
KSLE 260529Z 2606/2706 VRB04KT P6SM SCT250
     FM261200 16004KT P6SM SCT120 OVC200
     FM261600 18005KT P6SM OVC100
     FM262000 19006KT P6SM OVC060
     FM270300 20004KT P6SM SCT060 OVC090=



000
FTUS46 KPQR 260214 AAA
TAFPDX
TAF AMD
KPDX 260214Z 2602/2624 26010G17KT P6SM VCSH BKN070
     FM260400 29005KT P6SM SCT060 BKN250
     FM261000 VRB03KT P6SM SCT100 BKN250
     FM261600 15004KT P6SM OVC100
     FM262100 24005KT P6SM OVC050=



000
FTUS46 KPQR 260214 AAA
TAFPDX
TAF AMD
KPDX 260214Z 2602/2624 26010G17KT P6SM VCSH BKN070
     FM260400 29005KT P6SM SCT060 BKN250
     FM261000 VRB03KT P6SM SCT100 BKN250
     FM261600 15004KT P6SM OVC100
     FM262100 24005KT P6SM OVC050=



000
FTUS46 KPQR 252330
TAFSLE
TAF
KSLE 252330Z 2600/2624 30008KT P6SM SCT040 BKN060
     FM260400 VRB04KT P6SM SCT250
     FM261200 16004KT P6SM SCT120 OVC200
     FM261700 18005KT P6SM OVC100
     FM262100 19006KT P6SM OVC060=



000
FTUS46 KPQR 252330
TAFHIO
TAF
KHIO 252330Z 2600/2624 31005KT P6SM SCT050
     FM260300 VRB03KT P6SM SCT250
     FM261000 00000KT 3SM BR SCT002 SCT100
     FM261500 VRB03KT P6SM OVC100
     FM262100 22004KT P6SM OVC045=



000
FTUS46 KPQR 252330
TAFPDX
TAF
KPDX 252330Z 2600/2624 29007KT P6SM SCT050
     FM260400 29005KT P6SM SCT250
     FM261000 VRB03KT P6SM SCT100 BKN250
     FM261600 15004KT P6SM OVC100
     FM262100 24005KT P6SM OVC050=



000
FTUS46 KPQR 252330
TAFPDX
TAF
KPDX 252330Z 2600/2624 29007KT P6SM SCT050
     FM260400 29005KT P6SM SCT250
     FM261000 VRB03KT P6SM SCT100 BKN250
     FM261600 15004KT P6SM OVC100
     FM262100 24005KT P6SM OVC050=



000
FTUS46 KPQR 252330
TAFHIO
TAF
KHIO 252330Z 2600/2624 31005KT P6SM SCT050
     FM260300 VRB03KT P6SM SCT250
     FM261000 00000KT 3SM BR SCT002 SCT100
     FM261500 VRB03KT P6SM OVC100
     FM262100 22004KT P6SM OVC045=



000
FTUS46 KPQR 252330
TAFAST
TAF
KAST 252330Z 2600/2624 29008KT P6SM FEW040
     FM260400 VRB03KT P6SM SKC
     FM260900 14003KT 2SM BR BKN003
     FM261400 15006KT 5SM BR BKN005 OVC100
     FM261600 15005KT P6SM OVC080
     FM262000 18011KT 5SM -RA BR OVC025=



000
FTUS46 KPQR 252330
TAFTTD
TAF
KTTD 252330Z 2600/2624 30005KT P6SM SCT050
     FM260400 VRB03KT P6SM SCT250
     FM261000 00000KT P6SM SCT100 BKN250
     FM261600 10003KT P6SM OVC100
     FM262000 VRB04KT P6SM OVC050=



000
FTUS46 KPQR 252330
TAFEUG
TAF
KEUG 252330Z 2600/2624 31008KT P6SM -SHRA SCT035 BKN060
     FM260300 VRB03KT P6SM FEW035 SCT050
     FM261000 14003KT 4SM BR SCT004 SCT120
     FM261600 17005KT P6SM SCT010 BKN120
     FM261900 19006KT P6SM OVC100=



000
FTUS46 KPQR 252330
TAFEUG
TAF
KEUG 252330Z 2600/2624 31008KT P6SM -SHRA SCT035 BKN060
     FM260300 VRB03KT P6SM FEW035 SCT050
     FM261000 14003KT 4SM BR SCT004 SCT120
     FM261600 17005KT P6SM SCT010 BKN120
     FM261900 19006KT P6SM OVC100=



000
FTUS46 KPQR 252330
TAFTTD
TAF
KTTD 252330Z 2600/2624 30005KT P6SM SCT050
     FM260400 VRB03KT P6SM SCT250
     FM261000 00000KT P6SM SCT100 BKN250
     FM261600 10003KT P6SM OVC100
     FM262000 VRB04KT P6SM OVC050=



000
FTUS46 KPQR 252330
TAFONP
TAF
KONP 252330Z 2600/2624 30008KT P6SM SCT250
     FM260400 VRB03KT P6SM BKN250
     FM260900 14003KT 3SM BR SCT002 OVC120
     FM261600 16011KT P6SM SCT070 OVC100
     FM262000 19014G21KT P6SM SCT030 OVC050=



000
FTUS46 KPQR 252330
TAFONP
TAF
KONP 252330Z 2600/2624 30008KT P6SM SCT250
     FM260400 VRB03KT P6SM BKN250
     FM260900 14003KT 3SM BR SCT002 OVC120
     FM261600 16011KT P6SM SCT070 OVC100
     FM262000 19014G21KT P6SM SCT030 OVC050=



000
FTUS46 KPQR 252330
TAFAST
TAF
KAST 252330Z 2600/2624 29008KT P6SM FEW040
     FM260400 VRB03KT P6SM SKC
     FM260900 14003KT 2SM BR BKN003
     FM261400 15006KT 5SM BR BKN005 OVC100
     FM261600 15005KT P6SM OVC080
     FM262000 18011KT 5SM -RA BR OVC025=



000
FTUS46 KPQR 252330
TAFSLE
TAF
KSLE 252330Z 2600/2624 30008KT P6SM SCT040 BKN060
     FM260400 VRB04KT P6SM SCT250
     FM261200 16004KT P6SM SCT120 OVC200
     FM261700 18005KT P6SM OVC100
     FM262100 19006KT P6SM OVC060=



000
FTUS46 KPQR 252330
TAFPDX
TAF
KPDX 252330Z 2600/2624 29007KT P6SM SCT050
     FM260400 29005KT P6SM SCT250
     FM261000 VRB03KT P6SM SCT100 BKN250
     FM261600 15004KT P6SM OVC100
     FM262100 24005KT P6SM OVC050=



000
FTUS46 KPQR 252330
TAFSLE
TAF
KSLE 252330Z 2600/2624 30008KT P6SM SCT040 BKN060
     FM260400 VRB04KT P6SM SCT250
     FM261200 16004KT P6SM SCT120 OVC200
     FM261700 18005KT P6SM OVC100
     FM262100 19006KT P6SM OVC060=



000
FTUS46 KPQR 252330
TAFAST
TAF
KAST 252330Z 2600/2624 29008KT P6SM FEW040
     FM260400 VRB03KT P6SM SKC
     FM260900 14003KT 2SM BR BKN003
     FM261400 15006KT 5SM BR BKN005 OVC100
     FM261600 15005KT P6SM OVC080
     FM262000 18011KT 5SM -RA BR OVC025=



000
FTUS46 KPQR 252330
TAFHIO
TAF
KHIO 252330Z 2600/2624 31005KT P6SM SCT050
     FM260300 VRB03KT P6SM SCT250
     FM261000 00000KT 3SM BR SCT002 SCT100
     FM261500 VRB03KT P6SM OVC100
     FM262100 22004KT P6SM OVC045=



000
FTUS46 KPQR 252330
TAFEUG
TAF
KEUG 252330Z 2600/2624 31008KT P6SM -SHRA SCT035 BKN060
     FM260300 VRB03KT P6SM FEW035 SCT050
     FM261000 14003KT 4SM BR SCT004 SCT120
     FM261600 17005KT P6SM SCT010 BKN120
     FM261900 19006KT P6SM OVC100=



000
FTUS46 KPQR 252330
TAFTTD
TAF
KTTD 252330Z 2600/2624 30005KT P6SM SCT050
     FM260400 VRB03KT P6SM SCT250
     FM261000 00000KT P6SM SCT100 BKN250
     FM261600 10003KT P6SM OVC100
     FM262000 VRB04KT P6SM OVC050=



000
FTUS46 KPQR 252330
TAFONP
TAF
KONP 252330Z 2600/2624 30008KT P6SM SCT250
     FM260400 VRB03KT P6SM BKN250
     FM260900 14003KT 3SM BR SCT002 OVC120
     FM261600 16011KT P6SM SCT070 OVC100
     FM262000 19014G21KT P6SM SCT030 OVC050=



000
FTUS46 KPQR 252136 AAA
TAFPDX
TAF AMD
KPDX 252136Z 2522/2618 29007KT P6SM VCSH SCT020 BKN050
     FM260300 29005KT P6SM SCT050
     FM261000 VRB03KT P6SM SCT100 BKN250
     FM261300 15004KT P6SM SCT060 BKN100=



000
FTUS46 KPQR 252136 AAA
TAFPDX
TAF AMD
KPDX 252136Z 2522/2618 29007KT P6SM VCSH SCT020 BKN050
     FM260300 29005KT P6SM SCT050
     FM261000 VRB03KT P6SM SCT100 BKN250
     FM261300 15004KT P6SM SCT060 BKN100=



000
FTUS46 KPQR 251730
TAFONP
TAF
KONP 251730Z 2518/2618 25004KT P6SM -SHRA SCT020 BKN045
     FM260000 30008KT P6SM VCSH SCT025 BKN045
     FM260400 VRB03KT P6SM SCT045
     FM260900 14003KT 3/4SM BR BKN002
     FM261500 19006KT 4SM BR BKN005 OVC100=



000
FTUS46 KPQR 251730
TAFSLE
TAF
KSLE 251730Z 2518/2618 28007KT P6SM VCSH SCT025 BKN050
     FM252100 30008KT P6SM -SHRA SCT035 BKN050
     FM260300 29005KT P6SM FEW035 SCT050
     FM261200 VRB03KT P6SM SCT070 BKN120=



000
FTUS46 KPQR 251730
TAFEUG
TAF
KEUG 251730Z 2518/2618 26007KT P6SM VCSH SCT025 BKN050
     FM252100 29008KT P6SM -SHRA SCT035 BKN050
     FM260300 VRB03KT P6SM FEW035 SCT050
     FM261000 14003KT 4SM BR SCT006 SCT120
     FM261600 16006KT P6SM SCT010 BKN100=



000
FTUS46 KPQR 251730
TAFPDX
TAF
KPDX 251730Z 2518/2618 30007KT P6SM VCSH SCT020 BKN050
     FM260300 30005KT P6SM SCT050
     FM261000 VRB03KT P6SM SCT100 BKN250
     FM261300 15004KT P6SM SCT060 BKN100=



000
FTUS46 KPQR 251730
TAFAST
TAF
KAST 251730Z 2518/2618 VRB04KT P6SM -SHRA SCT025 BKN045
     FM260000 29008KT P6SM VCSH SCT030 BKN045
     FM260400 VRB03KT P6SM SCT045
     FM260900 14003KT 2SM BR BKN003
     FM261400 15006KT 5SM BR BKN005 OVC100=



000
FTUS46 KPQR 251730
TAFSLE
TAF
KSLE 251730Z 2518/2618 28007KT P6SM VCSH SCT025 BKN050
     FM252100 30008KT P6SM -SHRA SCT035 BKN050
     FM260300 29005KT P6SM FEW035 SCT050
     FM261200 VRB03KT P6SM SCT070 BKN120=



000
FTUS46 KPQR 251730
TAFHIO
TAF
KHIO 251730Z 2518/2618 29005KT P6SM VCSH SCT020 BKN050
     FM260300 31004KT P6SM SCT050
     FM261000 00000KT 3SM BR SCT002 SCT100
     FM261300 VRB03KT P6SM SCT060 BKN100=



000
FTUS46 KPQR 251730
TAFTTD
TAF
KTTD 251730Z 2518/2618 27004KT P6SM VCSH SCT020 BKN050
     FM260300 28004KT P6SM SCT050
     FM261000 00000KT P6SM SCT100 BKN250
     FM261400 15003KT P6SM SCT060 BKN100=



000
FTUS46 KPQR 251730
TAFEUG
TAF
KEUG 251730Z 2518/2618 26007KT P6SM VCSH SCT025 BKN050
     FM252100 29008KT P6SM -SHRA SCT035 BKN050
     FM260300 VRB03KT P6SM FEW035 SCT050
     FM261000 14003KT 4SM BR SCT006 SCT120
     FM261600 16006KT P6SM SCT010 BKN100=



000
FTUS46 KPQR 251730
TAFPDX
TAF
KPDX 251730Z 2518/2618 30007KT P6SM VCSH SCT020 BKN050
     FM260300 30005KT P6SM SCT050
     FM261000 VRB03KT P6SM SCT100 BKN250
     FM261300 15004KT P6SM SCT060 BKN100=



000
FTUS46 KPQR 251730
TAFAST
TAF
KAST 251730Z 2518/2618 VRB04KT P6SM -SHRA SCT025 BKN045
     FM260000 29008KT P6SM VCSH SCT030 BKN045
     FM260400 VRB03KT P6SM SCT045
     FM260900 14003KT 2SM BR BKN003
     FM261400 15006KT 5SM BR BKN005 OVC100=



000
FTUS46 KPQR 251730
TAFONP
TAF
KONP 251730Z 2518/2618 25004KT P6SM -SHRA SCT020 BKN045
     FM260000 30008KT P6SM VCSH SCT025 BKN045
     FM260400 VRB03KT P6SM SCT045
     FM260900 14003KT 3/4SM BR BKN002
     FM261500 19006KT 4SM BR BKN005 OVC100=



000
FTUS46 KPQR 251730
TAFTTD
TAF
KTTD 251730Z 2518/2618 27004KT P6SM VCSH SCT020 BKN050
     FM260300 28004KT P6SM SCT050
     FM261000 00000KT P6SM SCT100 BKN250
     FM261400 15003KT P6SM SCT060 BKN100=



000
FTUS46 KPQR 251730
TAFHIO
TAF
KHIO 251730Z 2518/2618 29005KT P6SM VCSH SCT020 BKN050
     FM260300 31004KT P6SM SCT050
     FM261000 00000KT 3SM BR SCT002 SCT100
     FM261300 VRB03KT P6SM SCT060 BKN100=



000
FTUS46 KPQR 251730
TAFHIO
TAF
KHIO 251730Z 2518/2618 29005KT P6SM VCSH SCT020 BKN050
     FM260300 31004KT P6SM SCT050
     FM261000 00000KT 3SM BR SCT002 SCT100
     FM261300 VRB03KT P6SM SCT060 BKN100=



000
FTUS46 KPQR 251730
TAFAST
TAF
KAST 251730Z 2518/2618 VRB04KT P6SM -SHRA SCT025 BKN045
     FM260000 29008KT P6SM VCSH SCT030 BKN045
     FM260400 VRB03KT P6SM SCT045
     FM260900 14003KT 2SM BR BKN003
     FM261400 15006KT 5SM BR BKN005 OVC100=



000
FTUS46 KPQR 251730
TAFTTD
TAF
KTTD 251730Z 2518/2618 27004KT P6SM VCSH SCT020 BKN050
     FM260300 28004KT P6SM SCT050
     FM261000 00000KT P6SM SCT100 BKN250
     FM261400 15003KT P6SM SCT060 BKN100=



000
FTUS46 KPQR 251730
TAFEUG
TAF
KEUG 251730Z 2518/2618 26007KT P6SM VCSH SCT025 BKN050
     FM252100 29008KT P6SM -SHRA SCT035 BKN050
     FM260300 VRB03KT P6SM FEW035 SCT050
     FM261000 14003KT 4SM BR SCT006 SCT120
     FM261600 16006KT P6SM SCT010 BKN100=



000
FTUS46 KPQR 251730
TAFONP
TAF
KONP 251730Z 2518/2618 25004KT P6SM -SHRA SCT020 BKN045
     FM260000 30008KT P6SM VCSH SCT025 BKN045
     FM260400 VRB03KT P6SM SCT045
     FM260900 14003KT 3/4SM BR BKN002
     FM261500 19006KT 4SM BR BKN005 OVC100=



000
FTUS46 KPQR 251730
TAFPDX
TAF
KPDX 251730Z 2518/2618 30007KT P6SM VCSH SCT020 BKN050
     FM260300 30005KT P6SM SCT050
     FM261000 VRB03KT P6SM SCT100 BKN250
     FM261300 15004KT P6SM SCT060 BKN100=



000
FTUS46 KPQR 251730
TAFSLE
TAF
KSLE 251730Z 2518/2618 28007KT P6SM VCSH SCT025 BKN050
     FM252100 30008KT P6SM -SHRA SCT035 BKN050
     FM260300 29005KT P6SM FEW035 SCT050
     FM261200 VRB03KT P6SM SCT070 BKN120=



000
FTUS46 KPQR 251730
TAFONP
TAF
KONP 251730Z 2518/2618 25004KT P6SM -SHRA SCT020 BKN045
     FM260000 30008KT P6SM VCSH SCT025 BKN045
     FM260400 VRB03KT P6SM SCT045
     FM260900 14003KT 3/4SM BR BKN002
     FM261500 19006KT 4SM BR BKN005 OVC100=



000
FTUS46 KPQR 251730
TAFHIO
TAF
KHIO 251730Z 2518/2618 29005KT P6SM VCSH SCT020 BKN050
     FM260300 31004KT P6SM SCT050
     FM261000 00000KT 3SM BR SCT002 SCT100
     FM261300 VRB03KT P6SM SCT060 BKN100=



000
FTUS46 KPQR 251730
TAFSLE
TAF
KSLE 251730Z 2518/2618 28007KT P6SM VCSH SCT025 BKN050
     FM252100 30008KT P6SM -SHRA SCT035 BKN050
     FM260300 29005KT P6SM FEW035 SCT050
     FM261200 VRB03KT P6SM SCT070 BKN120=



000
FTUS46 KPQR 251730
TAFTTD
TAF
KTTD 251730Z 2518/2618 27004KT P6SM VCSH SCT020 BKN050
     FM260300 28004KT P6SM SCT050
     FM261000 00000KT P6SM SCT100 BKN250
     FM261400 15003KT P6SM SCT060 BKN100=



000
FTUS46 KPQR 251730
TAFPDX
TAF
KPDX 251730Z 2518/2618 30007KT P6SM VCSH SCT020 BKN050
     FM260300 30005KT P6SM SCT050
     FM261000 VRB03KT P6SM SCT100 BKN250
     FM261300 15004KT P6SM SCT060 BKN100=



000
FTUS46 KPQR 251730
TAFAST
TAF
KAST 251730Z 2518/2618 VRB04KT P6SM -SHRA SCT025 BKN045
     FM260000 29008KT P6SM VCSH SCT030 BKN045
     FM260400 VRB03KT P6SM SCT045
     FM260900 14003KT 2SM BR BKN003
     FM261400 15006KT 5SM BR BKN005 OVC100=



000
FTUS46 KPQR 251730
TAFEUG
TAF
KEUG 251730Z 2518/2618 26007KT P6SM VCSH SCT025 BKN050
     FM252100 29008KT P6SM -SHRA SCT035 BKN050
     FM260300 VRB03KT P6SM FEW035 SCT050
     FM261000 14003KT 4SM BR SCT006 SCT120
     FM261600 16006KT P6SM SCT010 BKN100=



000
FTUS46 KPQR 251457 AAA
TAFTTD
TAF AMD
KTTD 251457Z 2515/2612 25003KT P6SM -SHRA SCT006 SCT020 BKN040
      TEMPO 2515/2517 BKN006 BKN020
     FM251900 27008KT P6SM -SHRA BKN035 BKN050
     FM260300 27003KT P6SM SCT035 BKN070
     FM260900 VRB03KT P6SM BKN150=



000
FTUS46 KPQR 251456 AAA
TAFPDX
TAF AMD
KPDX 251456Z 2515/2612 29004KT P6SM -SHRA SCT006 SCT020 BKN040
     FM252000 29008KT P6SM -SHRA BKN035 BKN050
     FM260300 30006KT P6SM SCT040 BKN060
     FM260900 VRB03KT P6SM BKN150=



000
FTUS46 KPQR 251456 AAA
TAFPDX
TAF AMD
KPDX 251456Z 2515/2612 29004KT P6SM -SHRA SCT006 SCT020 BKN040
     FM252000 29008KT P6SM -SHRA BKN035 BKN050
     FM260300 30006KT P6SM SCT040 BKN060
     FM260900 VRB03KT P6SM BKN150=



000
FTUS46 KPQR 251456 AAA
TAFPDX
TAF AMD
KPDX 251456Z 2515/2612 29004KT P6SM -SHRA SCT006 SCT020 BKN040
     FM252000 29008KT P6SM -SHRA BKN035 BKN050
     FM260300 30006KT P6SM SCT040 BKN060
     FM260900 VRB03KT P6SM BKN150=



000
FTUS46 KPQR 251456 AAA
TAFPDX
TAF AMD
KPDX 251456Z 2515/2612 29004KT P6SM -SHRA SCT006 SCT020 BKN040
     FM252000 29008KT P6SM -SHRA BKN035 BKN050
     FM260300 30006KT P6SM SCT040 BKN060
     FM260900 VRB03KT P6SM BKN150=



000
FTUS46 KPQR 251418 AAA
TAFAST
TAF AMD
KAST 251418Z 2514/2612 12003KT 2SM BR BKN001 BKN025
      TEMPO 2514/2517 1/4SM FG VV001
     FM251700 VRB04KT P6SM -SHRA SCT005 BKN025 BKN040
     FM252200 29008KT P6SM VCSH SCT030 BKN070
     FM260300 VRB03KT P6SM SCT030 BKN200=



000
FTUS46 KPQR 251418 AAA
TAFAST
TAF AMD
KAST 251418Z 2514/2612 12003KT 2SM BR BKN001 BKN025
      TEMPO 2514/2517 1/4SM FG VV001
     FM251700 VRB04KT P6SM -SHRA SCT005 BKN025 BKN040
     FM252200 29008KT P6SM VCSH SCT030 BKN070
     FM260300 VRB03KT P6SM SCT030 BKN200=



000
FTUS46 KPQR 251417 AAA
TAFHIO
TAF AMD
KHIO 251417Z 2514/2612 32004KT P6SM SCT003 SCT025 BKN040
      TEMPO 2514/2517 -SHRA BKN003 BKN025
     FM252100 30007KT P6SM -SHRA SCT030 BKN050
     FM260200 31006KT P6SM SCT035 BKN060
     FM260800 00000KT P6SM BKN150=



000
FTUS46 KPQR 251417 AAA
TAFHIO
TAF AMD
KHIO 251417Z 2514/2612 32004KT P6SM SCT003 SCT025 BKN040
      TEMPO 2514/2517 -SHRA BKN003 BKN025
     FM252100 30007KT P6SM -SHRA SCT030 BKN050
     FM260200 31006KT P6SM SCT035 BKN060
     FM260800 00000KT P6SM BKN150=



000
FTUS46 KPQR 251417 AAA
TAFHIO
TAF AMD
KHIO 251417Z 2514/2612 32004KT P6SM SCT003 SCT025 BKN040
      TEMPO 2514/2517 -SHRA BKN003 BKN025
     FM252100 30007KT P6SM -SHRA SCT030 BKN050
     FM260200 31006KT P6SM SCT035 BKN060
     FM260800 00000KT P6SM BKN150=



000
FTUS46 KPQR 251417 AAA
TAFHIO
TAF AMD
KHIO 251417Z 2514/2612 32004KT P6SM SCT003 SCT025 BKN040
      TEMPO 2514/2517 -SHRA BKN003 BKN025
     FM252100 30007KT P6SM -SHRA SCT030 BKN050
     FM260200 31006KT P6SM SCT035 BKN060
     FM260800 00000KT P6SM BKN150=



000
FTUS46 KPQR 251123
TAFPDX
TAF
KPDX 251123Z 2512/2612 VRB03KT P6SM -SHRA SCT025 BKN040
     FM252100 29008KT P6SM -SHRA BKN035 BKN050
     FM260300 30006KT P6SM SCT040 BKN060
     FM260900 VRB03KT P6SM BKN150=



000
FTUS46 KPQR 251123
TAFTTD
TAF
KTTD 251123Z 2512/2612 21004KT P6SM -SHRA SCT025 BKN040
     FM252100 28008KT P6SM -SHRA BKN035 BKN050
     FM260300 27003KT P6SM SCT035 BKN070
     FM260900 VRB03KT P6SM BKN150=



000
FTUS46 KPQR 251123
TAFAST
TAF
KAST 251123Z 2512/2612 VRB04KT P6SM -SHRA BKN025 BKN040
     FM252200 29008KT P6SM VCSH SCT030 BKN070
     FM260300 VRB03KT P6SM SCT030 BKN200=



000
FTUS46 KPQR 251123
TAFONP
TAF
KONP 251123Z 2512/2612 VRB04KT P6SM -SHRA SCT020 BKN035 BKN080
     FM252000 31009KT P6SM VCSH SCT020 BKN060
     FM260200 VRB03KT P6SM SCT025 BKN200
     FM260900 VRB03KT P6SM SCT025 OVC100=



000
FTUS46 KPQR 251123
TAFSLE
TAF
KSLE 251123Z 2512/2612 18005KT P6SM -SHRA SCT020 BKN040
     FM252100 30007KT P6SM -SHRA BKN035 BKN060
     FM260300 29005KT P6SM SCT040 BKN080
     FM260700 VRB03KT P6SM BKN150=



000
FTUS46 KPQR 251123
TAFSLE
TAF
KSLE 251123Z 2512/2612 18005KT P6SM -SHRA SCT020 BKN040
     FM252100 30007KT P6SM -SHRA BKN035 BKN060
     FM260300 29005KT P6SM SCT040 BKN080
     FM260700 VRB03KT P6SM BKN150=



000
FTUS46 KPQR 251123
TAFHIO
TAF
KHIO 251123Z 2512/2612 32004KT P6SM -SHRA SCT025 BKN040
     FM252100 30007KT P6SM -SHRA SCT030 BKN050
     FM260200 31006KT P6SM SCT035 BKN060
     FM260800 00000KT P6SM BKN150=



000
FTUS46 KPQR 251123
TAFEUG
TAF
KEUG 251123Z 2512/2612 20008KT P6SM VCSH SCT025 BKN040
     FM251900 27006KT P6SM -SHRA BKN035 BKN060
     FM260100 29006KT P6SM SCT040 BKN080
     FM260700 20004KT P6SM BKN150=



000
FTUS46 KPQR 251123
TAFAST
TAF
KAST 251123Z 2512/2612 VRB04KT P6SM -SHRA BKN025 BKN040
     FM252200 29008KT P6SM VCSH SCT030 BKN070
     FM260300 VRB03KT P6SM SCT030 BKN200=



000
FTUS46 KPQR 251123
TAFAST
TAF
KAST 251123Z 2512/2612 VRB04KT P6SM -SHRA BKN025 BKN040
     FM252200 29008KT P6SM VCSH SCT030 BKN070
     FM260300 VRB03KT P6SM SCT030 BKN200=



000
FTUS46 KPQR 251123
TAFHIO
TAF
KHIO 251123Z 2512/2612 32004KT P6SM -SHRA SCT025 BKN040
     FM252100 30007KT P6SM -SHRA SCT030 BKN050
     FM260200 31006KT P6SM SCT035 BKN060
     FM260800 00000KT P6SM BKN150=



000
FTUS46 KPQR 251123
TAFHIO
TAF
KHIO 251123Z 2512/2612 32004KT P6SM -SHRA SCT025 BKN040
     FM252100 30007KT P6SM -SHRA SCT030 BKN050
     FM260200 31006KT P6SM SCT035 BKN060
     FM260800 00000KT P6SM BKN150=



000
FTUS46 KPQR 251123
TAFONP
TAF
KONP 251123Z 2512/2612 VRB04KT P6SM -SHRA SCT020 BKN035 BKN080
     FM252000 31009KT P6SM VCSH SCT020 BKN060
     FM260200 VRB03KT P6SM SCT025 BKN200
     FM260900 VRB03KT P6SM SCT025 OVC100=



000
FTUS46 KPQR 251123
TAFPDX
TAF
KPDX 251123Z 2512/2612 VRB03KT P6SM -SHRA SCT025 BKN040
     FM252100 29008KT P6SM -SHRA BKN035 BKN050
     FM260300 30006KT P6SM SCT040 BKN060
     FM260900 VRB03KT P6SM BKN150=



000
FTUS46 KPQR 251123
TAFSLE
TAF
KSLE 251123Z 2512/2612 18005KT P6SM -SHRA SCT020 BKN040
     FM252100 30007KT P6SM -SHRA BKN035 BKN060
     FM260300 29005KT P6SM SCT040 BKN080
     FM260700 VRB03KT P6SM BKN150=



000
FTUS46 KPQR 251123
TAFPDX
TAF
KPDX 251123Z 2512/2612 VRB03KT P6SM -SHRA SCT025 BKN040
     FM252100 29008KT P6SM -SHRA BKN035 BKN050
     FM260300 30006KT P6SM SCT040 BKN060
     FM260900 VRB03KT P6SM BKN150=



000
FTUS46 KPQR 251123
TAFONP
TAF
KONP 251123Z 2512/2612 VRB04KT P6SM -SHRA SCT020 BKN035 BKN080
     FM252000 31009KT P6SM VCSH SCT020 BKN060
     FM260200 VRB03KT P6SM SCT025 BKN200
     FM260900 VRB03KT P6SM SCT025 OVC100=



000
FTUS46 KPQR 251123
TAFTTD
TAF
KTTD 251123Z 2512/2612 21004KT P6SM -SHRA SCT025 BKN040
     FM252100 28008KT P6SM -SHRA BKN035 BKN050
     FM260300 27003KT P6SM SCT035 BKN070
     FM260900 VRB03KT P6SM BKN150=



000
FTUS46 KPQR 251123
TAFEUG
TAF
KEUG 251123Z 2512/2612 20008KT P6SM VCSH SCT025 BKN040
     FM251900 27006KT P6SM -SHRA BKN035 BKN060
     FM260100 29006KT P6SM SCT040 BKN080
     FM260700 20004KT P6SM BKN150=



000
FTUS46 KPQR 251123
TAFTTD
TAF
KTTD 251123Z 2512/2612 21004KT P6SM -SHRA SCT025 BKN040
     FM252100 28008KT P6SM -SHRA BKN035 BKN050
     FM260300 27003KT P6SM SCT035 BKN070
     FM260900 VRB03KT P6SM BKN150=



000
FTUS46 KPQR 251123
TAFEUG
TAF
KEUG 251123Z 2512/2612 20008KT P6SM VCSH SCT025 BKN040
     FM251900 27006KT P6SM -SHRA BKN035 BKN060
     FM260100 29006KT P6SM SCT040 BKN080
     FM260700 20004KT P6SM BKN150=



000
FTUS46 KPQR 251123
TAFTTD
TAF
KTTD 251123Z 2512/2612 21004KT P6SM -SHRA SCT025 BKN040
     FM252100 28008KT P6SM -SHRA BKN035 BKN050
     FM260300 27003KT P6SM SCT035 BKN070
     FM260900 VRB03KT P6SM BKN150=



000
FTUS46 KPQR 251123
TAFPDX
TAF
KPDX 251123Z 2512/2612 VRB03KT P6SM -SHRA SCT025 BKN040
     FM252100 29008KT P6SM -SHRA BKN035 BKN050
     FM260300 30006KT P6SM SCT040 BKN060
     FM260900 VRB03KT P6SM BKN150=



000
FTUS46 KPQR 251123
TAFONP
TAF
KONP 251123Z 2512/2612 VRB04KT P6SM -SHRA SCT020 BKN035 BKN080
     FM252000 31009KT P6SM VCSH SCT020 BKN060
     FM260200 VRB03KT P6SM SCT025 BKN200
     FM260900 VRB03KT P6SM SCT025 OVC100=



000
FTUS46 KPQR 251123
TAFSLE
TAF
KSLE 251123Z 2512/2612 18005KT P6SM -SHRA SCT020 BKN040
     FM252100 30007KT P6SM -SHRA BKN035 BKN060
     FM260300 29005KT P6SM SCT040 BKN080
     FM260700 VRB03KT P6SM BKN150=



000
FTUS46 KPQR 251123
TAFAST
TAF
KAST 251123Z 2512/2612 VRB04KT P6SM -SHRA BKN025 BKN040
     FM252200 29008KT P6SM VCSH SCT030 BKN070
     FM260300 VRB03KT P6SM SCT030 BKN200=



000
FTUS46 KPQR 251123
TAFHIO
TAF
KHIO 251123Z 2512/2612 32004KT P6SM -SHRA SCT025 BKN040
     FM252100 30007KT P6SM -SHRA SCT030 BKN050
     FM260200 31006KT P6SM SCT035 BKN060
     FM260800 00000KT P6SM BKN150=



000
FTUS46 KPQR 251123
TAFEUG
TAF
KEUG 251123Z 2512/2612 20008KT P6SM VCSH SCT025 BKN040
     FM251900 27006KT P6SM -SHRA BKN035 BKN060
     FM260100 29006KT P6SM SCT040 BKN080
     FM260700 20004KT P6SM BKN150=



000
FTUS46 KPQR 250849 AAA
TAFPDX
TAF AMD
KPDX 250849Z 2509/2606 19005KT P6SM -SHRA SCT025 BKN045 BKN070
     FM252100 29008KT P6SM -SHRA BKN035 BKN050
     FM260300 30006KT P6SM SCT040 BKN100=



000
FTUS46 KPQR 250849 AAA
TAFPDX
TAF AMD
KPDX 250849Z 2509/2606 19005KT P6SM -SHRA SCT025 BKN045 BKN070
     FM252100 29008KT P6SM -SHRA BKN035 BKN050
     FM260300 30006KT P6SM SCT040 BKN100=



000
FTUS46 KPQR 250849 AAA
TAFPDX
TAF AMD
KPDX 250849Z 2509/2606 19005KT P6SM -SHRA SCT025 BKN045 BKN070
     FM252100 29008KT P6SM -SHRA BKN035 BKN050
     FM260300 30006KT P6SM SCT040 BKN100=



000
FTUS46 KPQR 250533
TAFSLE
TAF
KSLE 250533Z 2506/2606 18006KT P6SM SCT040 BKN060
     FM251500 20006KT P6SM -SHRA BKN035 BKN050
     FM252100 33007KT P6SM -SHRA BKN035 BKN060
     FM260300 29005KT P6SM SCT040 BKN100=



000
FTUS46 KPQR 250533
TAFPDX
TAF
KPDX 250533Z 2506/2606 19005KT P6SM VCSH SCT025 BKN045 BKN070
     FM251400 20006KT P6SM -SHRA SCT025 BKN035 OVC060
     FM252100 29008KT P6SM -SHRA BKN035 BKN050
     FM260300 30006KT P6SM SCT040 BKN100=



000
FTUS46 KPQR 250533
TAFTTD
TAF
KTTD 250533Z 2506/2606 VRB03KT P6SM SCT030 BKN060
     FM251400 20006KT P6SM -SHRA SCT025 BKN035 BKN050
     FM252100 28008KT P6SM -SHRA BKN035 BKN050
     FM260300 27006KT P6SM SCT035 BKN070 BKN120=



000
FTUS46 KPQR 250533
TAFEUG
TAF
KEUG 250533Z 2506/2606 19006KT P6SM SCT030 BKN045
     FM251200 20008KT P6SM VCSH SCT025 BKN045 BKN060
     FM251900 21008KT P6SM -SHRA SCT025 BKN040 BKN060
     FM260100 29006KT P6SM SCT030 BKN080=



000
FTUS46 KPQR 250533
TAFSLE
TAF
KSLE 250533Z 2506/2606 18006KT P6SM SCT040 BKN060
     FM251500 20006KT P6SM -SHRA BKN035 BKN050
     FM252100 33007KT P6SM -SHRA BKN035 BKN060
     FM260300 29005KT P6SM SCT040 BKN100=



000
FTUS46 KPQR 250533
TAFHIO
TAF
KHIO 250533Z 2506/2606 VRB03KT P6SM SCT030 BKN050
     FM251400 18005KT P6SM -SHRA SCT025 BKN035 BKN050
     FM252100 30007KT P6SM -SHRA SCT025 BKN045
     FM260200 31006KT P6SM SCT030 BKN080=



000
FTUS46 KPQR 250533
TAFONP
TAF
KONP 250533Z 2506/2606 19006KT P6SM VCSH SCT020 BKN050
     FM251000 VRB04KT P6SM -SHRA SCT020 BKN035 BKN050
     FM252000 31009KT P6SM VCSH SCT020 BKN060
     FM260000 33008KT P6SM SCT025 BKN200=



000
FTUS46 KPQR 250533
TAFAST
TAF
KAST 250533Z 2506/2606 VRB04KT P6SM VCSH SCT030 BKN050
     FM250900 19006KT P6SM -SHRA SCT025 BKN040
     FM251200 18008KT P6SM -SHRA BKN025 OVC040
     FM252200 29008KT P6SM VCSH SCT030 BKN070
     FM260100 29007KT P6SM SCT030 BKN120=



000
FTUS46 KPQR 250533
TAFPDX
TAF
KPDX 250533Z 2506/2606 19005KT P6SM VCSH SCT025 BKN045 BKN070
     FM251400 20006KT P6SM -SHRA SCT025 BKN035 OVC060
     FM252100 29008KT P6SM -SHRA BKN035 BKN050
     FM260300 30006KT P6SM SCT040 BKN100=



000
FTUS46 KPQR 250533
TAFHIO
TAF
KHIO 250533Z 2506/2606 VRB03KT P6SM SCT030 BKN050
     FM251400 18005KT P6SM -SHRA SCT025 BKN035 BKN050
     FM252100 30007KT P6SM -SHRA SCT025 BKN045
     FM260200 31006KT P6SM SCT030 BKN080=



000
FTUS46 KPQR 250533
TAFONP
TAF
KONP 250533Z 2506/2606 19006KT P6SM VCSH SCT020 BKN050
     FM251000 VRB04KT P6SM -SHRA SCT020 BKN035 BKN050
     FM252000 31009KT P6SM VCSH SCT020 BKN060
     FM260000 33008KT P6SM SCT025 BKN200=



000
FTUS46 KPQR 250533
TAFEUG
TAF
KEUG 250533Z 2506/2606 19006KT P6SM SCT030 BKN045
     FM251200 20008KT P6SM VCSH SCT025 BKN045 BKN060
     FM251900 21008KT P6SM -SHRA SCT025 BKN040 BKN060
     FM260100 29006KT P6SM SCT030 BKN080=



000
FTUS46 KPQR 250533
TAFAST
TAF
KAST 250533Z 2506/2606 VRB04KT P6SM VCSH SCT030 BKN050
     FM250900 19006KT P6SM -SHRA SCT025 BKN040
     FM251200 18008KT P6SM -SHRA BKN025 OVC040
     FM252200 29008KT P6SM VCSH SCT030 BKN070
     FM260100 29007KT P6SM SCT030 BKN120=



000
FTUS46 KPQR 250533
TAFTTD
TAF
KTTD 250533Z 2506/2606 VRB03KT P6SM SCT030 BKN060
     FM251400 20006KT P6SM -SHRA SCT025 BKN035 BKN050
     FM252100 28008KT P6SM -SHRA BKN035 BKN050
     FM260300 27006KT P6SM SCT035 BKN070 BKN120=



000
FTUS46 KPQR 250533
TAFEUG
TAF
KEUG 250533Z 2506/2606 19006KT P6SM SCT030 BKN045
     FM251200 20008KT P6SM VCSH SCT025 BKN045 BKN060
     FM251900 21008KT P6SM -SHRA SCT025 BKN040 BKN060
     FM260100 29006KT P6SM SCT030 BKN080=



000
FTUS46 KPQR 250533
TAFTTD
TAF
KTTD 250533Z 2506/2606 VRB03KT P6SM SCT030 BKN060
     FM251400 20006KT P6SM -SHRA SCT025 BKN035 BKN050
     FM252100 28008KT P6SM -SHRA BKN035 BKN050
     FM260300 27006KT P6SM SCT035 BKN070 BKN120=



000
FTUS46 KPQR 250533
TAFSLE
TAF
KSLE 250533Z 2506/2606 18006KT P6SM SCT040 BKN060
     FM251500 20006KT P6SM -SHRA BKN035 BKN050
     FM252100 33007KT P6SM -SHRA BKN035 BKN060
     FM260300 29005KT P6SM SCT040 BKN100=



000
FTUS46 KPQR 250259 AAA
TAFPDX
TAF AMD
KPDX 250259Z 2503/2524 20007KT P6SM -SHRA SCT025 BKN045 BKN070
     FM250500 19005KT P6SM VCSH SCT025 BKN045 BKN070
     FM251400 20006KT P6SM -SHRA SCT025 BKN035 OVC060
     FM252100 29005KT P6SM -SHRA BKN035 BKN050=



000
FTUS46 KPQR 250259 AAA
TAFPDX
TAF AMD
KPDX 250259Z 2503/2524 20007KT P6SM -SHRA SCT025 BKN045 BKN070
     FM250500 19005KT P6SM VCSH SCT025 BKN045 BKN070
     FM251400 20006KT P6SM -SHRA SCT025 BKN035 OVC060
     FM252100 29005KT P6SM -SHRA BKN035 BKN050=



000
FTUS46 KPQR 250259 AAA
TAFPDX
TAF AMD
KPDX 250259Z 2503/2524 20007KT P6SM -SHRA SCT025 BKN045 BKN070
     FM250500 19005KT P6SM VCSH SCT025 BKN045 BKN070
     FM251400 20006KT P6SM -SHRA SCT025 BKN035 OVC060
     FM252100 29005KT P6SM -SHRA BKN035 BKN050=



    US Dept of Commerce
    National Oceanic and Atmospheric Administration
    National Weather Service
    1325 East West Highway
    Silver Spring, MD 20910
    Page Author: NWS Internet Services Team
Disclaimer
Information Quality
Credits
Glossary
Privacy Policy
Freedom of Information Act (FOIA)
About Us
Career Opportunities